<?xml version="1.0" encoding="UTF-8" standalone="no" ?>
<gpx xmlns="http://www.topografix.com/GPX/1/1" xmlns:xsi="http://www.w3.org/2001/XMLSchema-instance" xsi:schemaLocation="http://www.topografix.com/GPX/1/1 http://www.topografix.com/GPX/1/1/gpx.xsd" version="1.1" creator="VisuGPX - https://www.visugpx.com">
  <metadata>
    <name>Sentier des bigues</name>
    <desc><![CDATA[Large circuit au départ du Bayard empruntant le sentier des bigues]]></desc>
  </metadata>
  <trk>
    <name><![CDATA[ACTIVE LOG065951]]></name>
    <trkseg>
      <trkpt lat="45.78724" lon="5.44341">
        <ele>221.117</ele>
        <time>2016-06-19T07:08:33Z</time>
      </trkpt>
      <trkpt lat="45.78714" lon="5.44354">
        <ele>220.597</ele>
        <time>2016-06-19T07:09:07Z</time>
      </trkpt>
      <trkpt lat="45.78692" lon="5.44368">
        <ele>219.579</ele>
        <time>2016-06-19T07:09:14Z</time>
      </trkpt>
      <trkpt lat="45.78656" lon="5.4436">
        <ele>221.611</ele>
        <time>2016-06-19T07:09:26Z</time>
      </trkpt>
      <trkpt lat="45.78635" lon="5.4436">
        <ele>222.195</ele>
        <time>2016-06-19T07:09:34Z</time>
      </trkpt>
      <trkpt lat="45.78606" lon="5.44371">
        <ele>223.678</ele>
        <time>2016-06-19T07:09:47Z</time>
      </trkpt>
      <trkpt lat="45.78602" lon="5.44373">
        <ele>223.54</ele>
        <time>2016-06-19T07:10:13Z</time>
      </trkpt>
      <trkpt lat="45.78576" lon="5.44391">
        <ele>224.108</ele>
        <time>2016-06-19T07:10:25Z</time>
      </trkpt>
      <trkpt lat="45.78539" lon="5.44417">
        <ele>225.366</ele>
        <time>2016-06-19T07:10:34Z</time>
      </trkpt>
      <trkpt lat="45.78528" lon="5.44417">
        <ele>226.73</ele>
        <time>2016-06-19T07:10:36Z</time>
      </trkpt>
      <trkpt lat="45.78478" lon="5.44442">
        <ele>228.439</ele>
        <time>2016-06-19T07:10:46Z</time>
      </trkpt>
      <trkpt lat="45.78402" lon="5.44469">
        <ele>230.421</ele>
        <time>2016-06-19T07:10:59Z</time>
      </trkpt>
      <trkpt lat="45.78342" lon="5.44481">
        <ele>230.175</ele>
        <time>2016-06-19T07:11:16Z</time>
      </trkpt>
      <trkpt lat="45.78275" lon="5.44471">
        <ele>230.437</ele>
        <time>2016-06-19T07:11:32Z</time>
      </trkpt>
      <trkpt lat="45.78241" lon="5.44445">
        <ele>229.097</ele>
        <time>2016-06-19T07:11:43Z</time>
      </trkpt>
      <trkpt lat="45.78204" lon="5.44402">
        <ele>228.754</ele>
        <time>2016-06-19T07:11:57Z</time>
      </trkpt>
      <trkpt lat="45.78154" lon="5.44326">
        <ele>227.171</ele>
        <time>2016-06-19T07:12:14Z</time>
      </trkpt>
      <trkpt lat="45.7812" lon="5.44273">
        <ele>226.714</ele>
        <time>2016-06-19T07:12:29Z</time>
      </trkpt>
      <trkpt lat="45.7808" lon="5.44225">
        <ele>226.521</ele>
        <time>2016-06-19T07:12:46Z</time>
      </trkpt>
      <trkpt lat="45.78068" lon="5.44209">
        <ele>225.828</ele>
        <time>2016-06-19T07:12:55Z</time>
      </trkpt>
      <trkpt lat="45.7805" lon="5.44191">
        <ele>225.226</ele>
        <time>2016-06-19T07:13:05Z</time>
      </trkpt>
      <trkpt lat="45.78027" lon="5.44176">
        <ele>225.342</ele>
        <time>2016-06-19T07:13:19Z</time>
      </trkpt>
      <trkpt lat="45.77989" lon="5.44153">
        <ele>225.194</ele>
        <time>2016-06-19T07:13:29Z</time>
      </trkpt>
      <trkpt lat="45.77938" lon="5.44119">
        <ele>225.044</ele>
        <time>2016-06-19T07:13:43Z</time>
      </trkpt>
      <trkpt lat="45.77952" lon="5.44078">
        <ele>225.208</ele>
        <time>2016-06-19T07:13:55Z</time>
      </trkpt>
      <trkpt lat="45.77992" lon="5.44035">
        <ele>225.448</ele>
        <time>2016-06-19T07:14:14Z</time>
      </trkpt>
      <trkpt lat="45.77997" lon="5.44032">
        <ele>225.969</ele>
        <time>2016-06-19T07:14:17Z</time>
      </trkpt>
      <trkpt lat="45.78004" lon="5.44028">
        <ele>226.124</ele>
        <time>2016-06-19T07:14:21Z</time>
      </trkpt>
      <trkpt lat="45.7801" lon="5.44014">
        <ele>225.815</ele>
        <time>2016-06-19T07:14:27Z</time>
      </trkpt>
      <trkpt lat="45.78016" lon="5.43993">
        <ele>226.296</ele>
        <time>2016-06-19T07:14:33Z</time>
      </trkpt>
      <trkpt lat="45.77999" lon="5.43946">
        <ele>226.862</ele>
        <time>2016-06-19T07:14:48Z</time>
      </trkpt>
      <trkpt lat="45.77974" lon="5.43871">
        <ele>227.366</ele>
        <time>2016-06-19T07:15:07Z</time>
      </trkpt>
      <trkpt lat="45.77931" lon="5.4376">
        <ele>227.422</ele>
        <time>2016-06-19T07:15:30Z</time>
      </trkpt>
      <trkpt lat="45.77886" lon="5.43647">
        <ele>226.801</ele>
        <time>2016-06-19T07:15:53Z</time>
      </trkpt>
      <trkpt lat="45.77882" lon="5.43638">
        <ele>226.743</ele>
        <time>2016-06-19T07:15:55Z</time>
      </trkpt>
      <trkpt lat="45.77914" lon="5.43585">
        <ele>227.675</ele>
        <time>2016-06-19T07:16:08Z</time>
      </trkpt>
      <trkpt lat="45.77946" lon="5.43521">
        <ele>226.864</ele>
        <time>2016-06-19T07:16:24Z</time>
      </trkpt>
      <trkpt lat="45.77951" lon="5.43512">
        <ele>228.965</ele>
        <time>2016-06-19T07:16:26Z</time>
      </trkpt>
      <trkpt lat="45.77999" lon="5.4341">
        <ele>229.242</ele>
        <time>2016-06-19T07:16:50Z</time>
      </trkpt>
      <trkpt lat="45.78028" lon="5.43374">
        <ele>229.52</ele>
        <time>2016-06-19T07:17:01Z</time>
      </trkpt>
      <trkpt lat="45.78075" lon="5.43306">
        <ele>228.249</ele>
        <time>2016-06-19T07:17:17Z</time>
      </trkpt>
      <trkpt lat="45.78107" lon="5.43298">
        <ele>228.151</ele>
        <time>2016-06-19T07:17:28Z</time>
      </trkpt>
      <trkpt lat="45.7811" lon="5.43273">
        <ele>228.389</ele>
        <time>2016-06-19T07:17:34Z</time>
      </trkpt>
      <trkpt lat="45.78116" lon="5.43259">
        <ele>228.365</ele>
        <time>2016-06-19T07:17:38Z</time>
      </trkpt>
      <trkpt lat="45.7816" lon="5.43234">
        <ele>229.699</ele>
        <time>2016-06-19T07:17:55Z</time>
      </trkpt>
      <trkpt lat="45.78182" lon="5.43221">
        <ele>228.933</ele>
        <time>2016-06-19T07:18:02Z</time>
      </trkpt>
      <trkpt lat="45.78241" lon="5.4321">
        <ele>227.554</ele>
        <time>2016-06-19T07:18:16Z</time>
      </trkpt>
      <trkpt lat="45.78287" lon="5.43215">
        <ele>227.01</ele>
        <time>2016-06-19T07:18:25Z</time>
      </trkpt>
      <trkpt lat="45.78319" lon="5.43212">
        <ele>226.605</ele>
        <time>2016-06-19T07:18:31Z</time>
      </trkpt>
      <trkpt lat="45.78341" lon="5.43212">
        <ele>226.048</ele>
        <time>2016-06-19T07:18:35Z</time>
      </trkpt>
      <trkpt lat="45.78371" lon="5.43218">
        <ele>226.28</ele>
        <time>2016-06-19T07:18:41Z</time>
      </trkpt>
      <trkpt lat="45.78405" lon="5.43216">
        <ele>226.648</ele>
        <time>2016-06-19T07:18:49Z</time>
      </trkpt>
      <trkpt lat="45.78471" lon="5.4322">
        <ele>228.489</ele>
        <time>2016-06-19T07:19:06Z</time>
      </trkpt>
      <trkpt lat="45.78546" lon="5.43209">
        <ele>227.38</ele>
        <time>2016-06-19T07:19:26Z</time>
      </trkpt>
      <trkpt lat="45.78566" lon="5.43217">
        <ele>226.7</ele>
        <time>2016-06-19T07:19:31Z</time>
      </trkpt>
      <trkpt lat="45.78568" lon="5.43217">
        <ele>226.233</ele>
        <time>2016-06-19T07:19:45Z</time>
      </trkpt>
      <trkpt lat="45.78574" lon="5.43216">
        <ele>225.747</ele>
        <time>2016-06-19T07:20:21Z</time>
      </trkpt>
      <trkpt lat="45.78585" lon="5.43215">
        <ele>226.04</ele>
        <time>2016-06-19T07:23:26Z</time>
      </trkpt>
      <trkpt lat="45.78592" lon="5.43215">
        <ele>225.939</ele>
        <time>2016-06-19T07:23:28Z</time>
      </trkpt>
      <trkpt lat="45.78667" lon="5.43207">
        <ele>225.015</ele>
        <time>2016-06-19T07:23:46Z</time>
      </trkpt>
      <trkpt lat="45.7871" lon="5.43202">
        <ele>224.639</ele>
        <time>2016-06-19T07:24:03Z</time>
      </trkpt>
      <trkpt lat="45.78768" lon="5.43194">
        <ele>224.248</ele>
        <time>2016-06-19T07:24:25Z</time>
      </trkpt>
      <trkpt lat="45.78818" lon="5.43187">
        <ele>224.563</ele>
        <time>2016-06-19T07:24:45Z</time>
      </trkpt>
      <trkpt lat="45.78868" lon="5.43181">
        <ele>224.558</ele>
        <time>2016-06-19T07:25:05Z</time>
      </trkpt>
      <trkpt lat="45.78899" lon="5.43177">
        <ele>224.262</ele>
        <time>2016-06-19T07:25:20Z</time>
      </trkpt>
      <trkpt lat="45.78916" lon="5.43193">
        <ele>224.129</ele>
        <time>2016-06-19T07:25:35Z</time>
      </trkpt>
      <trkpt lat="45.78917" lon="5.43198">
        <ele>224.407</ele>
        <time>2016-06-19T07:28:28Z</time>
      </trkpt>
      <trkpt lat="45.78926" lon="5.43255">
        <ele>225.218</ele>
        <time>2016-06-19T07:28:41Z</time>
      </trkpt>
      <trkpt lat="45.78939" lon="5.43339">
        <ele>228.167</ele>
        <time>2016-06-19T07:29:00Z</time>
      </trkpt>
      <trkpt lat="45.78949" lon="5.43408">
        <ele>231.763</ele>
        <time>2016-06-19T07:29:16Z</time>
      </trkpt>
      <trkpt lat="45.78961" lon="5.43484">
        <ele>234.508</ele>
        <time>2016-06-19T07:29:34Z</time>
      </trkpt>
      <trkpt lat="45.7896" lon="5.43517">
        <ele>237.056</ele>
        <time>2016-06-19T07:29:42Z</time>
      </trkpt>
      <trkpt lat="45.78953" lon="5.43543">
        <ele>239.17</ele>
        <time>2016-06-19T07:29:51Z</time>
      </trkpt>
      <trkpt lat="45.78951" lon="5.43549">
        <ele>239.933</ele>
        <time>2016-06-19T07:30:08Z</time>
      </trkpt>
      <trkpt lat="45.78972" lon="5.43554">
        <ele>238.015</ele>
        <time>2016-06-19T07:30:26Z</time>
      </trkpt>
      <trkpt lat="45.79005" lon="5.43537">
        <ele>237.341</ele>
        <time>2016-06-19T07:30:32Z</time>
      </trkpt>
      <trkpt lat="45.79016" lon="5.43529">
        <ele>235.917</ele>
        <time>2016-06-19T07:30:34Z</time>
      </trkpt>
      <trkpt lat="45.79027" lon="5.43522">
        <ele>234.606</ele>
        <time>2016-06-19T07:30:36Z</time>
      </trkpt>
      <trkpt lat="45.79082" lon="5.43465">
        <ele>231.309</ele>
        <time>2016-06-19T07:30:46Z</time>
      </trkpt>
      <trkpt lat="45.79136" lon="5.43415">
        <ele>229.343</ele>
        <time>2016-06-19T07:30:55Z</time>
      </trkpt>
      <trkpt lat="45.79239" lon="5.43341">
        <ele>227.033</ele>
        <time>2016-06-19T07:31:14Z</time>
      </trkpt>
      <trkpt lat="45.79311" lon="5.433">
        <ele>227.358</ele>
        <time>2016-06-19T07:31:28Z</time>
      </trkpt>
      <trkpt lat="45.79329" lon="5.43287">
        <ele>226.917</ele>
        <time>2016-06-19T07:31:32Z</time>
      </trkpt>
      <trkpt lat="45.79396" lon="5.43196">
        <ele>225.86</ele>
        <time>2016-06-19T07:31:51Z</time>
      </trkpt>
      <trkpt lat="45.79433" lon="5.43156">
        <ele>225.673</ele>
        <time>2016-06-19T07:32:01Z</time>
      </trkpt>
      <trkpt lat="45.79502" lon="5.43117">
        <ele>227.451</ele>
        <time>2016-06-19T07:32:17Z</time>
      </trkpt>
      <trkpt lat="45.79561" lon="5.43089">
        <ele>226.193</ele>
        <time>2016-06-19T07:32:30Z</time>
      </trkpt>
      <trkpt lat="45.79642" lon="5.43044">
        <ele>226.161</ele>
        <time>2016-06-19T07:32:47Z</time>
      </trkpt>
      <trkpt lat="45.79666" lon="5.43026">
        <ele>226.452</ele>
        <time>2016-06-19T07:32:54Z</time>
      </trkpt>
      <trkpt lat="45.79692" lon="5.42986">
        <ele>226.124</ele>
        <time>2016-06-19T07:33:03Z</time>
      </trkpt>
      <trkpt lat="45.79737" lon="5.42928">
        <ele>225.543</ele>
        <time>2016-06-19T07:33:15Z</time>
      </trkpt>
      <trkpt lat="45.79751" lon="5.42912">
        <ele>224.986</ele>
        <time>2016-06-19T07:33:18Z</time>
      </trkpt>
      <trkpt lat="45.79765" lon="5.42887">
        <ele>224.814</ele>
        <time>2016-06-19T07:33:22Z</time>
      </trkpt>
      <trkpt lat="45.79811" lon="5.42769">
        <ele>224.534</ele>
        <time>2016-06-19T07:33:39Z</time>
      </trkpt>
      <trkpt lat="45.79818" lon="5.42743">
        <ele>225.001</ele>
        <time>2016-06-19T07:33:43Z</time>
      </trkpt>
      <trkpt lat="45.7983" lon="5.42691">
        <ele>225.234</ele>
        <time>2016-06-19T07:33:51Z</time>
      </trkpt>
      <trkpt lat="45.79838" lon="5.42667">
        <ele>225.559</ele>
        <time>2016-06-19T07:33:55Z</time>
      </trkpt>
      <trkpt lat="45.79843" lon="5.42656">
        <ele>225.456</ele>
        <time>2016-06-19T07:33:57Z</time>
      </trkpt>
      <trkpt lat="45.79853" lon="5.42642">
        <ele>225.638</ele>
        <time>2016-06-19T07:34:00Z</time>
      </trkpt>
      <trkpt lat="45.79914" lon="5.42554">
        <ele>223.818</ele>
        <time>2016-06-19T07:34:15Z</time>
      </trkpt>
      <trkpt lat="45.79952" lon="5.42502">
        <ele>223.498</ele>
        <time>2016-06-19T07:34:24Z</time>
      </trkpt>
      <trkpt lat="45.79963" lon="5.42484">
        <ele>223.498</ele>
        <time>2016-06-19T07:34:28Z</time>
      </trkpt>
      <trkpt lat="45.79987" lon="5.42447">
        <ele>223.62</ele>
        <time>2016-06-19T07:34:36Z</time>
      </trkpt>
      <trkpt lat="45.8" lon="5.42419">
        <ele>221.87</ele>
        <time>2016-06-19T07:34:41Z</time>
      </trkpt>
      <trkpt lat="45.80003" lon="5.42411">
        <ele>221.337</ele>
        <time>2016-06-19T07:34:43Z</time>
      </trkpt>
      <trkpt lat="45.80033" lon="5.42308">
        <ele>222.28</ele>
        <time>2016-06-19T07:35:01Z</time>
      </trkpt>
      <trkpt lat="45.79967" lon="5.42147">
        <ele>222.354</ele>
        <time>2016-06-19T07:35:23Z</time>
      </trkpt>
      <trkpt lat="45.79966" lon="5.42143">
        <ele>222.098</ele>
        <time>2016-06-19T07:35:24Z</time>
      </trkpt>
      <trkpt lat="45.79991" lon="5.42103">
        <ele>223.239</ele>
        <time>2016-06-19T07:35:33Z</time>
      </trkpt>
      <trkpt lat="45.80049" lon="5.42054">
        <ele>222.489</ele>
        <time>2016-06-19T07:35:51Z</time>
      </trkpt>
      <trkpt lat="45.80076" lon="5.42029">
        <ele>222.716</ele>
        <time>2016-06-19T07:36:05Z</time>
      </trkpt>
      <trkpt lat="45.80078" lon="5.42026">
        <ele>222.354</ele>
        <time>2016-06-19T07:36:17Z</time>
      </trkpt>
      <trkpt lat="45.80082" lon="5.42023">
        <ele>222.779</ele>
        <time>2016-06-19T07:36:42Z</time>
      </trkpt>
      <trkpt lat="45.80095" lon="5.42012">
        <ele>223.252</ele>
        <time>2016-06-19T07:36:49Z</time>
      </trkpt>
      <trkpt lat="45.80182" lon="5.41931">
        <ele>223.02</ele>
        <time>2016-06-19T07:37:11Z</time>
      </trkpt>
      <trkpt lat="45.80228" lon="5.41866">
        <ele>222.748</ele>
        <time>2016-06-19T07:37:25Z</time>
      </trkpt>
      <trkpt lat="45.80274" lon="5.41779">
        <ele>222.615</ele>
        <time>2016-06-19T07:37:42Z</time>
      </trkpt>
      <trkpt lat="45.80326" lon="5.41672">
        <ele>223.073</ele>
        <time>2016-06-19T07:38:02Z</time>
      </trkpt>
      <trkpt lat="45.80375" lon="5.41565">
        <ele>222.372</ele>
        <time>2016-06-19T07:38:21Z</time>
      </trkpt>
      <trkpt lat="45.80387" lon="5.41541">
        <ele>222.56</ele>
        <time>2016-06-19T07:38:25Z</time>
      </trkpt>
      <trkpt lat="45.80405" lon="5.41502">
        <ele>222.438</ele>
        <time>2016-06-19T07:38:32Z</time>
      </trkpt>
      <trkpt lat="45.80425" lon="5.41487">
        <ele>222.024</ele>
        <time>2016-06-19T07:38:37Z</time>
      </trkpt>
      <trkpt lat="45.80469" lon="5.41466">
        <ele>221.601</ele>
        <time>2016-06-19T07:38:49Z</time>
      </trkpt>
      <trkpt lat="45.80553" lon="5.41431">
        <ele>221.358</ele>
        <time>2016-06-19T07:39:08Z</time>
      </trkpt>
      <trkpt lat="45.80595" lon="5.41433">
        <ele>221.13</ele>
        <time>2016-06-19T07:39:17Z</time>
      </trkpt>
      <trkpt lat="45.80615" lon="5.41433">
        <ele>220.634</ele>
        <time>2016-06-19T07:39:21Z</time>
      </trkpt>
      <trkpt lat="45.80649" lon="5.41415">
        <ele>219.667</ele>
        <time>2016-06-19T07:39:28Z</time>
      </trkpt>
      <trkpt lat="45.80663" lon="5.41418">
        <ele>219.812</ele>
        <time>2016-06-19T07:39:32Z</time>
      </trkpt>
      <trkpt lat="45.80703" lon="5.41514">
        <ele>219.138</ele>
        <time>2016-06-19T07:39:51Z</time>
      </trkpt>
      <trkpt lat="45.80744" lon="5.41615">
        <ele>218.485</ele>
        <time>2016-06-19T07:40:11Z</time>
      </trkpt>
      <trkpt lat="45.80785" lon="5.41716">
        <ele>218.636</ele>
        <time>2016-06-19T07:40:31Z</time>
      </trkpt>
      <trkpt lat="45.80818" lon="5.418">
        <ele>219.561</ele>
        <time>2016-06-19T07:40:47Z</time>
      </trkpt>
      <trkpt lat="45.80839" lon="5.41843">
        <ele>219.355</ele>
        <time>2016-06-19T07:40:56Z</time>
      </trkpt>
      <trkpt lat="45.80859" lon="5.41833">
        <ele>219.479</ele>
        <time>2016-06-19T07:41:01Z</time>
      </trkpt>
      <trkpt lat="45.80944" lon="5.41774">
        <ele>219.889</ele>
        <time>2016-06-19T07:41:20Z</time>
      </trkpt>
      <trkpt lat="45.80998" lon="5.4173">
        <ele>218.562</ele>
        <time>2016-06-19T07:41:35Z</time>
      </trkpt>
      <trkpt lat="45.81081" lon="5.41674">
        <ele>219.416</ele>
        <time>2016-06-19T07:41:55Z</time>
      </trkpt>
      <trkpt lat="45.81158" lon="5.41628">
        <ele>217.965</ele>
        <time>2016-06-19T07:42:14Z</time>
      </trkpt>
      <trkpt lat="45.81253" lon="5.41574">
        <ele>218.546</ele>
        <time>2016-06-19T07:42:37Z</time>
      </trkpt>
      <trkpt lat="45.81332" lon="5.41516">
        <ele>218.892</ele>
        <time>2016-06-19T07:42:57Z</time>
      </trkpt>
      <trkpt lat="45.81433" lon="5.41438">
        <ele>216.118</ele>
        <time>2016-06-19T07:43:20Z</time>
      </trkpt>
      <trkpt lat="45.81448" lon="5.41425">
        <ele>215.716</ele>
        <time>2016-06-19T07:43:23Z</time>
      </trkpt>
      <trkpt lat="45.81464" lon="5.41409">
        <ele>214.377</ele>
        <time>2016-06-19T07:43:26Z</time>
      </trkpt>
      <trkpt lat="45.81488" lon="5.41368">
        <ele>210.831</ele>
        <time>2016-06-19T07:43:31Z</time>
      </trkpt>
      <trkpt lat="45.81488" lon="5.41357">
        <ele>210.831</ele>
        <time>2016-06-19T07:43:32Z</time>
      </trkpt>
      <trkpt lat="45.81488" lon="5.41324">
        <ele>208.511</ele>
        <time>2016-06-19T07:43:35Z</time>
      </trkpt>
      <trkpt lat="45.81495" lon="5.41243">
        <ele>207.042</ele>
        <time>2016-06-19T07:43:43Z</time>
      </trkpt>
      <trkpt lat="45.81487" lon="5.41215">
        <ele>207.208</ele>
        <time>2016-06-19T07:43:47Z</time>
      </trkpt>
      <trkpt lat="45.81437" lon="5.41137">
        <ele>207.71</ele>
        <time>2016-06-19T07:44:03Z</time>
      </trkpt>
      <trkpt lat="45.81426" lon="5.41111">
        <ele>208.215</ele>
        <time>2016-06-19T07:44:08Z</time>
      </trkpt>
      <trkpt lat="45.8145" lon="5.41154">
        <ele>209.383</ele>
        <time>2016-06-19T07:44:27Z</time>
      </trkpt>
      <trkpt lat="45.81453" lon="5.41159">
        <ele>209.568</ele>
        <time>2016-06-19T07:44:29Z</time>
      </trkpt>
      <trkpt lat="45.8146" lon="5.41168">
        <ele>210.35</ele>
        <time>2016-06-19T07:44:34Z</time>
      </trkpt>
      <trkpt lat="45.81476" lon="5.41192">
        <ele>210.807</ele>
        <time>2016-06-19T07:44:47Z</time>
      </trkpt>
      <trkpt lat="45.81485" lon="5.41211">
        <ele>209.906</ele>
        <time>2016-06-19T07:44:56Z</time>
      </trkpt>
      <trkpt lat="45.8155" lon="5.4117">
        <ele>209.568</ele>
        <time>2016-06-19T07:44:59Z</time>
      </trkpt>
      <trkpt lat="45.81638" lon="5.41178">
        <ele>208.762</ele>
        <time>2016-06-19T07:45:15Z</time>
      </trkpt>
      <trkpt lat="45.81645" lon="5.41209">
        <ele>208.236</ele>
        <time>2016-06-19T07:45:27Z</time>
      </trkpt>
      <trkpt lat="45.81656" lon="5.41259">
        <ele>207.816</ele>
        <time>2016-06-19T07:47:15Z</time>
      </trkpt>
      <trkpt lat="45.8168" lon="5.41357">
        <ele>206.067</ele>
        <time>2016-06-19T07:47:29Z</time>
      </trkpt>
      <trkpt lat="45.817" lon="5.41438">
        <ele>205.66</ele>
        <time>2016-06-19T07:47:44Z</time>
      </trkpt>
      <trkpt lat="45.81706" lon="5.4147">
        <ele>205.779</ele>
        <time>2016-06-19T07:47:50Z</time>
      </trkpt>
      <trkpt lat="45.8171" lon="5.41483">
        <ele>205.557</ele>
        <time>2016-06-19T07:47:52Z</time>
      </trkpt>
      <trkpt lat="45.8172" lon="5.41524">
        <ele>205.039</ele>
        <time>2016-06-19T07:47:59Z</time>
      </trkpt>
      <trkpt lat="45.81732" lon="5.41564">
        <ele>204.375</ele>
        <time>2016-06-19T07:48:08Z</time>
      </trkpt>
      <trkpt lat="45.81772" lon="5.41633">
        <ele>204.637</ele>
        <time>2016-06-19T07:48:25Z</time>
      </trkpt>
      <trkpt lat="45.81775" lon="5.41637">
        <ele>204.637</ele>
        <time>2016-06-19T07:48:26Z</time>
      </trkpt>
      <trkpt lat="45.81784" lon="5.4165">
        <ele>204.299</ele>
        <time>2016-06-19T07:48:30Z</time>
      </trkpt>
      <trkpt lat="45.81807" lon="5.41688">
        <ele>204.928</ele>
        <time>2016-06-19T07:48:38Z</time>
      </trkpt>
      <trkpt lat="45.81811" lon="5.417">
        <ele>204.568</ele>
        <time>2016-06-19T07:48:43Z</time>
      </trkpt>
      <trkpt lat="45.81833" lon="5.41753">
        <ele>204.851</ele>
        <time>2016-06-19T07:48:57Z</time>
      </trkpt>
      <trkpt lat="45.8185" lon="5.41795">
        <ele>204.497</ele>
        <time>2016-06-19T07:49:08Z</time>
      </trkpt>
      <trkpt lat="45.81865" lon="5.41844">
        <ele>204.936</ele>
        <time>2016-06-19T07:49:23Z</time>
      </trkpt>
      <trkpt lat="45.81894" lon="5.4188">
        <ele>205.004</ele>
        <time>2016-06-19T07:49:32Z</time>
      </trkpt>
      <trkpt lat="45.8192" lon="5.41889">
        <ele>205.004</ele>
        <time>2016-06-19T07:49:38Z</time>
      </trkpt>
      <trkpt lat="45.81942" lon="5.41897">
        <ele>205.221</ele>
        <time>2016-06-19T07:49:43Z</time>
      </trkpt>
      <trkpt lat="45.82012" lon="5.41917">
        <ele>204.928</ele>
        <time>2016-06-19T07:49:59Z</time>
      </trkpt>
      <trkpt lat="45.82072" lon="5.4195">
        <ele>206.5</ele>
        <time>2016-06-19T07:50:16Z</time>
      </trkpt>
      <trkpt lat="45.82102" lon="5.4197">
        <ele>207.24</ele>
        <time>2016-06-19T07:50:25Z</time>
      </trkpt>
      <trkpt lat="45.82133" lon="5.41979">
        <ele>207.174</ele>
        <time>2016-06-19T07:50:34Z</time>
      </trkpt>
      <trkpt lat="45.82145" lon="5.4198">
        <ele>207.16</ele>
        <time>2016-06-19T07:50:37Z</time>
      </trkpt>
      <trkpt lat="45.82158" lon="5.41975">
        <ele>207.324</ele>
        <time>2016-06-19T07:50:41Z</time>
      </trkpt>
      <trkpt lat="45.82192" lon="5.41947">
        <ele>208.283</ele>
        <time>2016-06-19T07:50:52Z</time>
      </trkpt>
      <trkpt lat="45.82196" lon="5.4193">
        <ele>207.406</ele>
        <time>2016-06-19T07:50:56Z</time>
      </trkpt>
      <trkpt lat="45.82181" lon="5.41906">
        <ele>206.508</ele>
        <time>2016-06-19T07:51:03Z</time>
      </trkpt>
      <trkpt lat="45.82172" lon="5.4189">
        <ele>204.819</ele>
        <time>2016-06-19T07:51:07Z</time>
      </trkpt>
      <trkpt lat="45.82166" lon="5.41863">
        <ele>204.523</ele>
        <time>2016-06-19T07:51:12Z</time>
      </trkpt>
      <trkpt lat="45.82176" lon="5.41826">
        <ele>203.765</ele>
        <time>2016-06-19T07:51:23Z</time>
      </trkpt>
      <trkpt lat="45.82158" lon="5.4179">
        <ele>203.644</ele>
        <time>2016-06-19T07:51:29Z</time>
      </trkpt>
      <trkpt lat="45.82148" lon="5.41789">
        <ele>203.799</ele>
        <time>2016-06-19T07:51:32Z</time>
      </trkpt>
      <trkpt lat="45.8213" lon="5.41772">
        <ele>203.955</ele>
        <time>2016-06-19T07:51:37Z</time>
      </trkpt>
      <trkpt lat="45.82125" lon="5.41763">
        <ele>203.76</ele>
        <time>2016-06-19T07:51:39Z</time>
      </trkpt>
      <trkpt lat="45.82119" lon="5.41745">
        <ele>203.765</ele>
        <time>2016-06-19T07:51:43Z</time>
      </trkpt>
      <trkpt lat="45.82111" lon="5.4174">
        <ele>203.916</ele>
        <time>2016-06-19T07:51:46Z</time>
      </trkpt>
      <trkpt lat="45.82094" lon="5.41724">
        <ele>204.08</ele>
        <time>2016-06-19T07:51:53Z</time>
      </trkpt>
      <trkpt lat="45.8208" lon="5.41726">
        <ele>203.876</ele>
        <time>2016-06-19T07:51:57Z</time>
      </trkpt>
      <trkpt lat="45.82063" lon="5.41718">
        <ele>203.953</ele>
        <time>2016-06-19T07:52:01Z</time>
      </trkpt>
      <trkpt lat="45.82051" lon="5.41696">
        <ele>204.22</ele>
        <time>2016-06-19T07:52:05Z</time>
      </trkpt>
      <trkpt lat="45.82035" lon="5.41658">
        <ele>204.708</ele>
        <time>2016-06-19T07:52:13Z</time>
      </trkpt>
      <trkpt lat="45.82042" lon="5.41636">
        <ele>207.211</ele>
        <time>2016-06-19T07:52:20Z</time>
      </trkpt>
      <trkpt lat="45.82044" lon="5.41632">
        <ele>207.602</ele>
        <time>2016-06-19T07:52:22Z</time>
      </trkpt>
      <trkpt lat="45.82047" lon="5.41625">
        <ele>207.663</ele>
        <time>2016-06-19T07:52:25Z</time>
      </trkpt>
      <trkpt lat="45.82048" lon="5.41618">
        <ele>207.39</ele>
        <time>2016-06-19T07:52:30Z</time>
      </trkpt>
      <trkpt lat="45.82038" lon="5.41603">
        <ele>207.824</ele>
        <time>2016-06-19T07:52:37Z</time>
      </trkpt>
      <trkpt lat="45.82028" lon="5.41585">
        <ele>207.351</ele>
        <time>2016-06-19T07:52:50Z</time>
      </trkpt>
      <trkpt lat="45.82017" lon="5.41583">
        <ele>207.718</ele>
        <time>2016-06-19T07:54:54Z</time>
      </trkpt>
      <trkpt lat="45.82025" lon="5.41568">
        <ele>208.276</ele>
        <time>2016-06-19T07:55:16Z</time>
      </trkpt>
      <trkpt lat="45.82057" lon="5.41548">
        <ele>211.782</ele>
        <time>2016-06-19T07:55:33Z</time>
      </trkpt>
      <trkpt lat="45.8208" lon="5.41556">
        <ele>214.884</ele>
        <time>2016-06-19T07:55:44Z</time>
      </trkpt>
      <trkpt lat="45.82127" lon="5.41584">
        <ele>217.481</ele>
        <time>2016-06-19T07:56:07Z</time>
      </trkpt>
      <trkpt lat="45.82192" lon="5.416">
        <ele>219.352</ele>
        <time>2016-06-19T07:56:31Z</time>
      </trkpt>
      <trkpt lat="45.82256" lon="5.41599">
        <ele>219.476</ele>
        <time>2016-06-19T07:56:50Z</time>
      </trkpt>
      <trkpt lat="45.82316" lon="5.41576">
        <ele>219.331</ele>
        <time>2016-06-19T07:57:08Z</time>
      </trkpt>
      <trkpt lat="45.82338" lon="5.41505">
        <ele>220.938</ele>
        <time>2016-06-19T07:57:24Z</time>
      </trkpt>
      <trkpt lat="45.82334" lon="5.41431">
        <ele>221.093</ele>
        <time>2016-06-19T07:57:38Z</time>
      </trkpt>
      <trkpt lat="45.82333" lon="5.41407">
        <ele>220.975</ele>
        <time>2016-06-19T07:57:42Z</time>
      </trkpt>
      <trkpt lat="45.82364" lon="5.41353">
        <ele>220.66</ele>
        <time>2016-06-19T07:57:53Z</time>
      </trkpt>
      <trkpt lat="45.82398" lon="5.41343">
        <ele>220.48</ele>
        <time>2016-06-19T07:58:02Z</time>
      </trkpt>
      <trkpt lat="45.82402" lon="5.41334">
        <ele>220.597</ele>
        <time>2016-06-19T07:58:06Z</time>
      </trkpt>
      <trkpt lat="45.82398" lon="5.41313">
        <ele>220.301</ele>
        <time>2016-06-19T07:58:20Z</time>
      </trkpt>
      <trkpt lat="45.82381" lon="5.41251">
        <ele>221.078</ele>
        <time>2016-06-19T07:58:54Z</time>
      </trkpt>
      <trkpt lat="45.82363" lon="5.41199">
        <ele>221.537</ele>
        <time>2016-06-19T07:59:02Z</time>
      </trkpt>
      <trkpt lat="45.82352" lon="5.41169">
        <ele>221.878</ele>
        <time>2016-06-19T07:59:07Z</time>
      </trkpt>
      <trkpt lat="45.82329" lon="5.41105">
        <ele>222.282</ele>
        <time>2016-06-19T07:59:18Z</time>
      </trkpt>
      <trkpt lat="45.82315" lon="5.41066">
        <ele>222.24</ele>
        <time>2016-06-19T07:59:24Z</time>
      </trkpt>
      <trkpt lat="45.82267" lon="5.40931">
        <ele>221.479</ele>
        <time>2016-06-19T07:59:44Z</time>
      </trkpt>
      <trkpt lat="45.82235" lon="5.40848">
        <ele>221.133</ele>
        <time>2016-06-19T08:00:00Z</time>
      </trkpt>
      <trkpt lat="45.82218" lon="5.40799">
        <ele>221.545</ele>
        <time>2016-06-19T08:00:10Z</time>
      </trkpt>
      <trkpt lat="45.82206" lon="5.40758">
        <ele>222.393</ele>
        <time>2016-06-19T08:00:17Z</time>
      </trkpt>
      <trkpt lat="45.82204" lon="5.40753">
        <ele>221.95</ele>
        <time>2016-06-19T08:00:18Z</time>
      </trkpt>
      <trkpt lat="45.82202" lon="5.40727">
        <ele>222.098</ele>
        <time>2016-06-19T08:00:22Z</time>
      </trkpt>
      <trkpt lat="45.8222" lon="5.40688">
        <ele>222.578</ele>
        <time>2016-06-19T08:00:30Z</time>
      </trkpt>
      <trkpt lat="45.8221" lon="5.40658">
        <ele>221.918</ele>
        <time>2016-06-19T08:00:37Z</time>
      </trkpt>
      <trkpt lat="45.82206" lon="5.40659">
        <ele>221.918</ele>
        <time>2016-06-19T08:00:38Z</time>
      </trkpt>
      <trkpt lat="45.82192" lon="5.40669">
        <ele>221.815</ele>
        <time>2016-06-19T08:00:41Z</time>
      </trkpt>
      <trkpt lat="45.82175" lon="5.40661">
        <ele>220.705</ele>
        <time>2016-06-19T08:00:46Z</time>
      </trkpt>
      <trkpt lat="45.82157" lon="5.40618">
        <ele>221.064</ele>
        <time>2016-06-19T08:01:33Z</time>
      </trkpt>
      <trkpt lat="45.82152" lon="5.40604">
        <ele>220.885</ele>
        <time>2016-06-19T08:01:48Z</time>
      </trkpt>
      <trkpt lat="45.82151" lon="5.40602">
        <ele>220.38</ele>
        <time>2016-06-19T08:02:30Z</time>
      </trkpt>
      <trkpt lat="45.82146" lon="5.4059">
        <ele>220.509</ele>
        <time>2016-06-19T08:02:35Z</time>
      </trkpt>
      <trkpt lat="45.82112" lon="5.40524">
        <ele>221.535</ele>
        <time>2016-06-19T08:02:51Z</time>
      </trkpt>
      <trkpt lat="45.82086" lon="5.4049">
        <ele>221.355</ele>
        <time>2016-06-19T08:02:59Z</time>
      </trkpt>
      <trkpt lat="45.8202" lon="5.40417">
        <ele>220.642</ele>
        <time>2016-06-19T08:03:18Z</time>
      </trkpt>
      <trkpt lat="45.81997" lon="5.40381">
        <ele>219.955</ele>
        <time>2016-06-19T08:03:26Z</time>
      </trkpt>
      <trkpt lat="45.8198" lon="5.40355">
        <ele>220.074</ele>
        <time>2016-06-19T08:03:32Z</time>
      </trkpt>
      <trkpt lat="45.81979" lon="5.40337">
        <ele>220.068</ele>
        <time>2016-06-19T08:03:36Z</time>
      </trkpt>
      <trkpt lat="45.82063" lon="5.40314">
        <ele>221.289</ele>
        <time>2016-06-19T08:03:58Z</time>
      </trkpt>
      <trkpt lat="45.82113" lon="5.40302">
        <ele>221.701</ele>
        <time>2016-06-19T08:04:11Z</time>
      </trkpt>
      <trkpt lat="45.82178" lon="5.40314">
        <ele>223.157</ele>
        <time>2016-06-19T08:04:28Z</time>
      </trkpt>
      <trkpt lat="45.82249" lon="5.40313">
        <ele>224.092</ele>
        <time>2016-06-19T08:04:47Z</time>
      </trkpt>
      <trkpt lat="45.82317" lon="5.40325">
        <ele>225.823</ele>
        <time>2016-06-19T08:05:07Z</time>
      </trkpt>
      <trkpt lat="45.82327" lon="5.40284">
        <ele>225.34</ele>
        <time>2016-06-19T08:05:18Z</time>
      </trkpt>
      <trkpt lat="45.82333" lon="5.40204">
        <ele>225.274</ele>
        <time>2016-06-19T08:05:34Z</time>
      </trkpt>
      <trkpt lat="45.82323" lon="5.40147">
        <ele>226.6</ele>
        <time>2016-06-19T08:05:47Z</time>
      </trkpt>
      <trkpt lat="45.82289" lon="5.401">
        <ele>228.965</ele>
        <time>2016-06-19T08:06:02Z</time>
      </trkpt>
      <trkpt lat="45.82275" lon="5.40039">
        <ele>231.359</ele>
        <time>2016-06-19T08:06:17Z</time>
      </trkpt>
      <trkpt lat="45.82279" lon="5.40001">
        <ele>234.545</ele>
        <time>2016-06-19T08:06:30Z</time>
      </trkpt>
      <trkpt lat="45.82295" lon="5.39954">
        <ele>236.57</ele>
        <time>2016-06-19T08:06:46Z</time>
      </trkpt>
      <trkpt lat="45.82322" lon="5.39913">
        <ele>239.331</ele>
        <time>2016-06-19T08:07:03Z</time>
      </trkpt>
      <trkpt lat="45.8236" lon="5.39868">
        <ele>240.847</ele>
        <time>2016-06-19T08:07:23Z</time>
      </trkpt>
      <trkpt lat="45.8239" lon="5.39838">
        <ele>241.582</ele>
        <time>2016-06-19T08:07:39Z</time>
      </trkpt>
      <trkpt lat="45.82419" lon="5.3981">
        <ele>242.768</ele>
        <time>2016-06-19T08:07:54Z</time>
      </trkpt>
      <trkpt lat="45.82454" lon="5.39775">
        <ele>245.297</ele>
        <time>2016-06-19T08:08:13Z</time>
      </trkpt>
      <trkpt lat="45.8248" lon="5.39741">
        <ele>245.361</ele>
        <time>2016-06-19T08:08:29Z</time>
      </trkpt>
      <trkpt lat="45.8251" lon="5.39719">
        <ele>246.135</ele>
        <time>2016-06-19T08:08:42Z</time>
      </trkpt>
      <trkpt lat="45.82521" lon="5.39712">
        <ele>246.547</ele>
        <time>2016-06-19T08:08:47Z</time>
      </trkpt>
      <trkpt lat="45.82527" lon="5.39708">
        <ele>246.766</ele>
        <time>2016-06-19T08:08:50Z</time>
      </trkpt>
      <trkpt lat="45.82536" lon="5.39702">
        <ele>246.201</ele>
        <time>2016-06-19T08:08:56Z</time>
      </trkpt>
      <trkpt lat="45.82545" lon="5.397">
        <ele>245.918</ele>
        <time>2016-06-19T08:09:00Z</time>
      </trkpt>
      <trkpt lat="45.82552" lon="5.39654">
        <ele>245.627</ele>
        <time>2016-06-19T08:09:15Z</time>
      </trkpt>
      <trkpt lat="45.82552" lon="5.39647">
        <ele>245.627</ele>
        <time>2016-06-19T08:09:16Z</time>
      </trkpt>
      <trkpt lat="45.82551" lon="5.39591">
        <ele>244.113</ele>
        <time>2016-06-19T08:09:24Z</time>
      </trkpt>
      <trkpt lat="45.82551" lon="5.39508">
        <ele>244.993</ele>
        <time>2016-06-19T08:09:38Z</time>
      </trkpt>
      <trkpt lat="45.82556" lon="5.39456">
        <ele>248.325</ele>
        <time>2016-06-19T08:09:52Z</time>
      </trkpt>
      <trkpt lat="45.82558" lon="5.39425">
        <ele>251.433</ele>
        <time>2016-06-19T08:10:02Z</time>
      </trkpt>
      <trkpt lat="45.82558" lon="5.39402">
        <ele>252.452</ele>
        <time>2016-06-19T08:10:10Z</time>
      </trkpt>
      <trkpt lat="45.82557" lon="5.39386">
        <ele>254.368</ele>
        <time>2016-06-19T08:10:16Z</time>
      </trkpt>
      <trkpt lat="45.82582" lon="5.39361">
        <ele>255.385</ele>
        <time>2016-06-19T08:10:30Z</time>
      </trkpt>
      <trkpt lat="45.82602" lon="5.39353">
        <ele>256.205</ele>
        <time>2016-06-19T08:10:39Z</time>
      </trkpt>
      <trkpt lat="45.8261" lon="5.39343">
        <ele>256.598</ele>
        <time>2016-06-19T08:10:45Z</time>
      </trkpt>
      <trkpt lat="45.82611" lon="5.3934">
        <ele>255.573</ele>
        <time>2016-06-19T08:11:21Z</time>
      </trkpt>
      <trkpt lat="45.8261" lon="5.39343">
        <ele>255.203</ele>
        <time>2016-06-19T08:11:34Z</time>
      </trkpt>
      <trkpt lat="45.82617" lon="5.39334">
        <ele>256.437</ele>
        <time>2016-06-19T08:12:27Z</time>
      </trkpt>
      <trkpt lat="45.82648" lon="5.39297">
        <ele>257.423</ele>
        <time>2016-06-19T08:12:42Z</time>
      </trkpt>
      <trkpt lat="45.8268" lon="5.39264">
        <ele>258.274</ele>
        <time>2016-06-19T08:12:57Z</time>
      </trkpt>
      <trkpt lat="45.82685" lon="5.3926">
        <ele>257.838</ele>
        <time>2016-06-19T08:13:12Z</time>
      </trkpt>
      <trkpt lat="45.82669" lon="5.39208">
        <ele>257.819</ele>
        <time>2016-06-19T08:15:38Z</time>
      </trkpt>
      <trkpt lat="45.82655" lon="5.39157">
        <ele>256.268</ele>
        <time>2016-06-19T08:15:48Z</time>
      </trkpt>
      <trkpt lat="45.82644" lon="5.39124">
        <ele>255.053</ele>
        <time>2016-06-19T08:15:53Z</time>
      </trkpt>
      <trkpt lat="45.82643" lon="5.39095">
        <ele>254.173</ele>
        <time>2016-06-19T08:15:58Z</time>
      </trkpt>
      <trkpt lat="45.8265" lon="5.39085">
        <ele>253.124</ele>
        <time>2016-06-19T08:16:00Z</time>
      </trkpt>
      <trkpt lat="45.82684" lon="5.39042">
        <ele>252.693</ele>
        <time>2016-06-19T08:16:12Z</time>
      </trkpt>
      <trkpt lat="45.82695" lon="5.39032">
        <ele>252.577</ele>
        <time>2016-06-19T08:16:17Z</time>
      </trkpt>
      <trkpt lat="45.82708" lon="5.38987">
        <ele>251.834</ele>
        <time>2016-06-19T08:16:26Z</time>
      </trkpt>
      <trkpt lat="45.82705" lon="5.38976">
        <ele>252.143</ele>
        <time>2016-06-19T08:16:28Z</time>
      </trkpt>
      <trkpt lat="45.82689" lon="5.38914">
        <ele>250.97</ele>
        <time>2016-06-19T08:16:39Z</time>
      </trkpt>
      <trkpt lat="45.82695" lon="5.38864">
        <ele>251.279</ele>
        <time>2016-06-19T08:16:50Z</time>
      </trkpt>
      <trkpt lat="45.82694" lon="5.38788">
        <ele>252.698</ele>
        <time>2016-06-19T08:17:05Z</time>
      </trkpt>
      <trkpt lat="45.82713" lon="5.38739">
        <ele>256.738</ele>
        <time>2016-06-19T08:17:19Z</time>
      </trkpt>
      <trkpt lat="45.82747" lon="5.38678">
        <ele>258.62</ele>
        <time>2016-06-19T08:17:39Z</time>
      </trkpt>
      <trkpt lat="45.82765" lon="5.38643">
        <ele>260.461</ele>
        <time>2016-06-19T08:17:54Z</time>
      </trkpt>
      <trkpt lat="45.82775" lon="5.38619">
        <ele>261.201</ele>
        <time>2016-06-19T08:18:03Z</time>
      </trkpt>
      <trkpt lat="45.8279" lon="5.38585">
        <ele>261.172</ele>
        <time>2016-06-19T08:18:17Z</time>
      </trkpt>
      <trkpt lat="45.82791" lon="5.38581">
        <ele>261.294</ele>
        <time>2016-06-19T08:18:20Z</time>
      </trkpt>
      <trkpt lat="45.82796" lon="5.38571">
        <ele>261.024</ele>
        <time>2016-06-19T08:18:24Z</time>
      </trkpt>
      <trkpt lat="45.82812" lon="5.38564">
        <ele>260.237</ele>
        <time>2016-06-19T08:18:31Z</time>
      </trkpt>
      <trkpt lat="45.82879" lon="5.38647">
        <ele>258.326</ele>
        <time>2016-06-19T08:18:48Z</time>
      </trkpt>
      <trkpt lat="45.82918" lon="5.38681">
        <ele>259.05</ele>
        <time>2016-06-19T08:19:03Z</time>
      </trkpt>
      <trkpt lat="45.82958" lon="5.3871">
        <ele>259.938</ele>
        <time>2016-06-19T08:19:18Z</time>
      </trkpt>
      <trkpt lat="45.82987" lon="5.3873">
        <ele>260.57</ele>
        <time>2016-06-19T08:19:36Z</time>
      </trkpt>
      <trkpt lat="45.82993" lon="5.38743">
        <ele>260.123</ele>
        <time>2016-06-19T08:20:02Z</time>
      </trkpt>
      <trkpt lat="45.82997" lon="5.38742">
        <ele>260.308</ele>
        <time>2016-06-19T08:20:13Z</time>
      </trkpt>
      <trkpt lat="45.83035" lon="5.38749">
        <ele>260.052</ele>
        <time>2016-06-19T08:21:38Z</time>
      </trkpt>
      <trkpt lat="45.8313" lon="5.38739">
        <ele>259.235</ele>
        <time>2016-06-19T08:21:57Z</time>
      </trkpt>
      <trkpt lat="45.83188" lon="5.38736">
        <ele>261.405</ele>
        <time>2016-06-19T08:22:17Z</time>
      </trkpt>
      <trkpt lat="45.83207" lon="5.38753">
        <ele>262.599</ele>
        <time>2016-06-19T08:22:25Z</time>
      </trkpt>
      <trkpt lat="45.83215" lon="5.38746">
        <ele>262.528</ele>
        <time>2016-06-19T08:22:34Z</time>
      </trkpt>
      <trkpt lat="45.83224" lon="5.38742">
        <ele>263.022</ele>
        <time>2016-06-19T08:22:40Z</time>
      </trkpt>
      <trkpt lat="45.83226" lon="5.38741">
        <ele>262.044</ele>
        <time>2016-06-19T08:22:42Z</time>
      </trkpt>
      <trkpt lat="45.83248" lon="5.38744">
        <ele>262.652</ele>
        <time>2016-06-19T08:22:55Z</time>
      </trkpt>
      <trkpt lat="45.83263" lon="5.3875">
        <ele>263.336</ele>
        <time>2016-06-19T08:23:06Z</time>
      </trkpt>
      <trkpt lat="45.83296" lon="5.38768">
        <ele>265.463</ele>
        <time>2016-06-19T08:23:26Z</time>
      </trkpt>
      <trkpt lat="45.8332" lon="5.38781">
        <ele>266.274</ele>
        <time>2016-06-19T08:23:41Z</time>
      </trkpt>
      <trkpt lat="45.83353" lon="5.38796">
        <ele>268.232</ele>
        <time>2016-06-19T08:23:59Z</time>
      </trkpt>
      <trkpt lat="45.83376" lon="5.38804">
        <ele>268.801</ele>
        <time>2016-06-19T08:24:10Z</time>
      </trkpt>
      <trkpt lat="45.83419" lon="5.38806">
        <ele>269.86</ele>
        <time>2016-06-19T08:24:31Z</time>
      </trkpt>
      <trkpt lat="45.83451" lon="5.38803">
        <ele>271.517</ele>
        <time>2016-06-19T08:24:52Z</time>
      </trkpt>
      <trkpt lat="45.83469" lon="5.38806">
        <ele>270.909</ele>
        <time>2016-06-19T08:25:01Z</time>
      </trkpt>
      <trkpt lat="45.83473" lon="5.38796">
        <ele>271.517</ele>
        <time>2016-06-19T08:25:04Z</time>
      </trkpt>
      <trkpt lat="45.83474" lon="5.38791">
        <ele>272.315</ele>
        <time>2016-06-19T08:26:14Z</time>
      </trkpt>
      <trkpt lat="45.83483" lon="5.38735">
        <ele>273.089</ele>
        <time>2016-06-19T08:26:31Z</time>
      </trkpt>
      <trkpt lat="45.83481" lon="5.38669">
        <ele>275.396</ele>
        <time>2016-06-19T08:26:49Z</time>
      </trkpt>
      <trkpt lat="45.83472" lon="5.38645">
        <ele>276.292</ele>
        <time>2016-06-19T08:26:57Z</time>
      </trkpt>
      <trkpt lat="45.8346" lon="5.38605">
        <ele>279.898</ele>
        <time>2016-06-19T08:27:12Z</time>
      </trkpt>
      <trkpt lat="45.83444" lon="5.38586">
        <ele>282.054</ele>
        <time>2016-06-19T08:27:20Z</time>
      </trkpt>
      <trkpt lat="45.8342" lon="5.38561">
        <ele>285.743</ele>
        <time>2016-06-19T08:27:32Z</time>
      </trkpt>
      <trkpt lat="45.83411" lon="5.3853">
        <ele>288.803</ele>
        <time>2016-06-19T08:27:40Z</time>
      </trkpt>
      <trkpt lat="45.83413" lon="5.38527">
        <ele>288.803</ele>
        <time>2016-06-19T08:27:41Z</time>
      </trkpt>
      <trkpt lat="45.83434" lon="5.38494">
        <ele>291.527</ele>
        <time>2016-06-19T08:27:55Z</time>
      </trkpt>
      <trkpt lat="45.83452" lon="5.38482">
        <ele>294.061</ele>
        <time>2016-06-19T08:28:06Z</time>
      </trkpt>
      <trkpt lat="45.83486" lon="5.38461">
        <ele>296.413</ele>
        <time>2016-06-19T08:28:25Z</time>
      </trkpt>
      <trkpt lat="45.83519" lon="5.38441">
        <ele>298.836</ele>
        <time>2016-06-19T08:28:43Z</time>
      </trkpt>
      <trkpt lat="45.83544" lon="5.38424">
        <ele>302.725</ele>
        <time>2016-06-19T08:28:58Z</time>
      </trkpt>
      <trkpt lat="45.83555" lon="5.38417">
        <ele>303.09</ele>
        <time>2016-06-19T08:29:04Z</time>
      </trkpt>
      <trkpt lat="45.83563" lon="5.38411">
        <ele>304.123</ele>
        <time>2016-06-19T08:29:08Z</time>
      </trkpt>
      <trkpt lat="45.83594" lon="5.38384">
        <ele>306.213</ele>
        <time>2016-06-19T08:29:24Z</time>
      </trkpt>
      <trkpt lat="45.83609" lon="5.38376">
        <ele>306.316</ele>
        <time>2016-06-19T08:29:39Z</time>
      </trkpt>
      <trkpt lat="45.83642" lon="5.38386">
        <ele>309.978</ele>
        <time>2016-06-19T08:32:13Z</time>
      </trkpt>
      <trkpt lat="45.83663" lon="5.38392">
        <ele>311.654</ele>
        <time>2016-06-19T08:32:24Z</time>
      </trkpt>
      <trkpt lat="45.83695" lon="5.38403">
        <ele>312.835</ele>
        <time>2016-06-19T08:32:37Z</time>
      </trkpt>
      <trkpt lat="45.83725" lon="5.38418">
        <ele>314.079</ele>
        <time>2016-06-19T08:32:48Z</time>
      </trkpt>
      <trkpt lat="45.83754" lon="5.38449">
        <ele>314.69</ele>
        <time>2016-06-19T08:33:00Z</time>
      </trkpt>
      <trkpt lat="45.83771" lon="5.38464">
        <ele>315.636</ele>
        <time>2016-06-19T08:33:05Z</time>
      </trkpt>
      <trkpt lat="45.83806" lon="5.38474">
        <ele>316.93</ele>
        <time>2016-06-19T08:33:15Z</time>
      </trkpt>
      <trkpt lat="45.83816" lon="5.38474">
        <ele>317.911</ele>
        <time>2016-06-19T08:33:25Z</time>
      </trkpt>
      <trkpt lat="45.83833" lon="5.38476">
        <ele>318.555</ele>
        <time>2016-06-19T08:34:58Z</time>
      </trkpt>
      <trkpt lat="45.83843" lon="5.38451">
        <ele>320.276</ele>
        <time>2016-06-19T08:35:08Z</time>
      </trkpt>
      <trkpt lat="45.83864" lon="5.38426">
        <ele>322.418</ele>
        <time>2016-06-19T08:35:26Z</time>
      </trkpt>
      <trkpt lat="45.83893" lon="5.3839">
        <ele>323.565</ele>
        <time>2016-06-19T08:35:51Z</time>
      </trkpt>
      <trkpt lat="45.83898" lon="5.38382">
        <ele>323.967</ele>
        <time>2016-06-19T08:35:58Z</time>
      </trkpt>
      <trkpt lat="45.8392" lon="5.38355">
        <ele>326.245</ele>
        <time>2016-06-19T08:36:09Z</time>
      </trkpt>
      <trkpt lat="45.8395" lon="5.38334">
        <ele>327.463</ele>
        <time>2016-06-19T08:36:20Z</time>
      </trkpt>
      <trkpt lat="45.83963" lon="5.38336">
        <ele>327.648</ele>
        <time>2016-06-19T08:36:30Z</time>
      </trkpt>
      <trkpt lat="45.83984" lon="5.38339">
        <ele>328.903</ele>
        <time>2016-06-19T08:39:19Z</time>
      </trkpt>
      <trkpt lat="45.83995" lon="5.38342">
        <ele>329.286</ele>
        <time>2016-06-19T08:39:25Z</time>
      </trkpt>
      <trkpt lat="45.84017" lon="5.38346">
        <ele>330.459</ele>
        <time>2016-06-19T08:39:35Z</time>
      </trkpt>
      <trkpt lat="45.84028" lon="5.38349">
        <ele>330.493</ele>
        <time>2016-06-19T08:39:37Z</time>
      </trkpt>
      <trkpt lat="45.84055" lon="5.38355">
        <ele>330.406</ele>
        <time>2016-06-19T08:39:49Z</time>
      </trkpt>
      <trkpt lat="45.84085" lon="5.3836">
        <ele>328.247</ele>
        <time>2016-06-19T08:39:58Z</time>
      </trkpt>
      <trkpt lat="45.84112" lon="5.38363">
        <ele>326.099</ele>
        <time>2016-06-19T08:40:06Z</time>
      </trkpt>
      <trkpt lat="45.84119" lon="5.38364">
        <ele>324.86</ele>
        <time>2016-06-19T08:40:09Z</time>
      </trkpt>
      <trkpt lat="45.84122" lon="5.38365">
        <ele>323.549</ele>
        <time>2016-06-19T08:40:11Z</time>
      </trkpt>
      <trkpt lat="45.84128" lon="5.38365">
        <ele>321.879</ele>
        <time>2016-06-19T08:40:13Z</time>
      </trkpt>
      <trkpt lat="45.8413" lon="5.38366">
        <ele>321.007</ele>
        <time>2016-06-19T08:40:14Z</time>
      </trkpt>
      <trkpt lat="45.84138" lon="5.38367">
        <ele>317.876</ele>
        <time>2016-06-19T08:40:17Z</time>
      </trkpt>
      <trkpt lat="45.84143" lon="5.38367">
        <ele>317.876</ele>
        <time>2016-06-19T08:40:18Z</time>
      </trkpt>
      <trkpt lat="45.84147" lon="5.38367">
        <ele>316.743</ele>
        <time>2016-06-19T08:40:19Z</time>
      </trkpt>
      <trkpt lat="45.8416" lon="5.38367">
        <ele>314.455</ele>
        <time>2016-06-19T08:40:24Z</time>
      </trkpt>
      <trkpt lat="45.84181" lon="5.3837">
        <ele>312.105</ele>
        <time>2016-06-19T08:40:35Z</time>
      </trkpt>
      <trkpt lat="45.8422" lon="5.3837">
        <ele>312.827</ele>
        <time>2016-06-19T08:43:12Z</time>
      </trkpt>
      <trkpt lat="45.84227" lon="5.38366">
        <ele>313.715</ele>
        <time>2016-06-19T08:43:16Z</time>
      </trkpt>
      <trkpt lat="45.84256" lon="5.3835">
        <ele>316.965</ele>
        <time>2016-06-19T08:43:29Z</time>
      </trkpt>
      <trkpt lat="45.84267" lon="5.38343">
        <ele>318.418</ele>
        <time>2016-06-19T08:43:34Z</time>
      </trkpt>
      <trkpt lat="45.84278" lon="5.38335">
        <ele>320.706</ele>
        <time>2016-06-19T08:43:47Z</time>
      </trkpt>
      <trkpt lat="45.8431" lon="5.38282">
        <ele>322.868</ele>
        <time>2016-06-19T08:44:08Z</time>
      </trkpt>
      <trkpt lat="45.84316" lon="5.38278">
        <ele>323.045</ele>
        <time>2016-06-19T08:44:10Z</time>
      </trkpt>
      <trkpt lat="45.84344" lon="5.38255">
        <ele>323.98</ele>
        <time>2016-06-19T08:44:22Z</time>
      </trkpt>
      <trkpt lat="45.84363" lon="5.38236">
        <ele>325.787</ele>
        <time>2016-06-19T08:44:33Z</time>
      </trkpt>
      <trkpt lat="45.84391" lon="5.38196">
        <ele>327.732</ele>
        <time>2016-06-19T08:45:03Z</time>
      </trkpt>
      <trkpt lat="45.84425" lon="5.38171">
        <ele>329.666</ele>
        <time>2016-06-19T08:45:15Z</time>
      </trkpt>
      <trkpt lat="45.84441" lon="5.3815">
        <ele>332.367</ele>
        <time>2016-06-19T08:45:28Z</time>
      </trkpt>
      <trkpt lat="45.84453" lon="5.38133">
        <ele>334.523</ele>
        <time>2016-06-19T08:45:42Z</time>
      </trkpt>
      <trkpt lat="45.84446" lon="5.38095">
        <ele>338.552</ele>
        <time>2016-06-19T08:47:39Z</time>
      </trkpt>
      <trkpt lat="45.84443" lon="5.38094">
        <ele>339.958</ele>
        <time>2016-06-19T08:47:45Z</time>
      </trkpt>
      <trkpt lat="45.84414" lon="5.3807">
        <ele>343.293</ele>
        <time>2016-06-19T08:47:58Z</time>
      </trkpt>
      <trkpt lat="45.84398" lon="5.38049">
        <ele>346.107</ele>
        <time>2016-06-19T08:48:08Z</time>
      </trkpt>
      <trkpt lat="45.84374" lon="5.38017">
        <ele>348.514</ele>
        <time>2016-06-19T08:48:26Z</time>
      </trkpt>
      <trkpt lat="45.84348" lon="5.37987">
        <ele>350.017</ele>
        <time>2016-06-19T08:48:40Z</time>
      </trkpt>
      <trkpt lat="45.84346" lon="5.37986">
        <ele>350.245</ele>
        <time>2016-06-19T08:48:42Z</time>
      </trkpt>
      <trkpt lat="45.84327" lon="5.37975">
        <ele>351.08</ele>
        <time>2016-06-19T08:48:53Z</time>
      </trkpt>
      <trkpt lat="45.84314" lon="5.3796">
        <ele>351.899</ele>
        <time>2016-06-19T08:49:03Z</time>
      </trkpt>
      <trkpt lat="45.84296" lon="5.37943">
        <ele>351.489</ele>
        <time>2016-06-19T08:49:11Z</time>
      </trkpt>
      <trkpt lat="45.84288" lon="5.37937">
        <ele>351.421</ele>
        <time>2016-06-19T08:49:14Z</time>
      </trkpt>
      <trkpt lat="45.84255" lon="5.37916">
        <ele>351.83</ele>
        <time>2016-06-19T08:49:31Z</time>
      </trkpt>
      <trkpt lat="45.84241" lon="5.3791">
        <ele>351.875</ele>
        <time>2016-06-19T08:49:45Z</time>
      </trkpt>
      <trkpt lat="45.84196" lon="5.37899">
        <ele>351.04</ele>
        <time>2016-06-19T08:52:11Z</time>
      </trkpt>
      <trkpt lat="45.84192" lon="5.37898">
        <ele>350.752</ele>
        <time>2016-06-19T08:52:12Z</time>
      </trkpt>
      <trkpt lat="45.84144" lon="5.37866">
        <ele>350.258</ele>
        <time>2016-06-19T08:52:25Z</time>
      </trkpt>
      <trkpt lat="45.84131" lon="5.37858">
        <ele>348.805</ele>
        <time>2016-06-19T08:52:28Z</time>
      </trkpt>
      <trkpt lat="45.84119" lon="5.3785">
        <ele>348.887</ele>
        <time>2016-06-19T08:52:31Z</time>
      </trkpt>
      <trkpt lat="45.84072" lon="5.37803">
        <ele>348.171</ele>
        <time>2016-06-19T08:52:43Z</time>
      </trkpt>
      <trkpt lat="45.84034" lon="5.37724">
        <ele>344.733</ele>
        <time>2016-06-19T08:52:59Z</time>
      </trkpt>
      <trkpt lat="45.84008" lon="5.3765">
        <ele>344.323</ele>
        <time>2016-06-19T08:53:13Z</time>
      </trkpt>
      <trkpt lat="45.83998" lon="5.37621">
        <ele>342.767</ele>
        <time>2016-06-19T08:53:18Z</time>
      </trkpt>
      <trkpt lat="45.83991" lon="5.37582">
        <ele>341.98</ele>
        <time>2016-06-19T08:53:28Z</time>
      </trkpt>
      <trkpt lat="45.8399" lon="5.37576">
        <ele>341.113</ele>
        <time>2016-06-19T08:53:41Z</time>
      </trkpt>
      <trkpt lat="45.83975" lon="5.3757">
        <ele>341.353</ele>
        <time>2016-06-19T08:53:54Z</time>
      </trkpt>
      <trkpt lat="45.83923" lon="5.37598">
        <ele>338.309</ele>
        <time>2016-06-19T08:54:06Z</time>
      </trkpt>
      <trkpt lat="45.83872" lon="5.37619">
        <ele>335.651</ele>
        <time>2016-06-19T08:54:16Z</time>
      </trkpt>
      <trkpt lat="45.83861" lon="5.37623">
        <ele>335.136</ele>
        <time>2016-06-19T08:54:18Z</time>
      </trkpt>
      <trkpt lat="45.83842" lon="5.37617">
        <ele>334.367</ele>
        <time>2016-06-19T08:54:22Z</time>
      </trkpt>
      <trkpt lat="45.83811" lon="5.37589">
        <ele>333.791</ele>
        <time>2016-06-19T08:54:28Z</time>
      </trkpt>
      <trkpt lat="45.83793" lon="5.37581">
        <ele>332.475</ele>
        <time>2016-06-19T08:54:31Z</time>
      </trkpt>
      <trkpt lat="45.83749" lon="5.37566">
        <ele>330.631</ele>
        <time>2016-06-19T08:54:38Z</time>
      </trkpt>
      <trkpt lat="45.83725" lon="5.37547">
        <ele>329.407</ele>
        <time>2016-06-19T08:54:42Z</time>
      </trkpt>
      <trkpt lat="45.83706" lon="5.37511">
        <ele>327.428</ele>
        <time>2016-06-19T08:54:46Z</time>
      </trkpt>
      <trkpt lat="45.83684" lon="5.37468">
        <ele>323.404</ele>
        <time>2016-06-19T08:54:50Z</time>
      </trkpt>
      <trkpt lat="45.83678" lon="5.37456">
        <ele>323.404</ele>
        <time>2016-06-19T08:54:51Z</time>
      </trkpt>
      <trkpt lat="45.83665" lon="5.37433">
        <ele>322.323</ele>
        <time>2016-06-19T08:54:53Z</time>
      </trkpt>
      <trkpt lat="45.8365" lon="5.37382">
        <ele>318.658</ele>
        <time>2016-06-19T08:54:57Z</time>
      </trkpt>
      <trkpt lat="45.8364" lon="5.37369">
        <ele>316.5</ele>
        <time>2016-06-19T08:55:00Z</time>
      </trkpt>
      <trkpt lat="45.83653" lon="5.37382">
        <ele>317.203</ele>
        <time>2016-06-19T08:55:11Z</time>
      </trkpt>
      <trkpt lat="45.83664" lon="5.37374">
        <ele>317.784</ele>
        <time>2016-06-19T08:55:15Z</time>
      </trkpt>
      <trkpt lat="45.83692" lon="5.37348">
        <ele>319.927</ele>
        <time>2016-06-19T08:55:29Z</time>
      </trkpt>
      <trkpt lat="45.83718" lon="5.3731">
        <ele>320.733</ele>
        <time>2016-06-19T08:55:44Z</time>
      </trkpt>
      <trkpt lat="45.83735" lon="5.37267">
        <ele>321.359</ele>
        <time>2016-06-19T08:55:59Z</time>
      </trkpt>
      <trkpt lat="45.83746" lon="5.37205">
        <ele>322.146</ele>
        <time>2016-06-19T08:56:16Z</time>
      </trkpt>
      <trkpt lat="45.83771" lon="5.37162">
        <ele>321.922</ele>
        <time>2016-06-19T08:56:30Z</time>
      </trkpt>
      <trkpt lat="45.83805" lon="5.37143">
        <ele>325.531</ele>
        <time>2016-06-19T08:56:43Z</time>
      </trkpt>
      <trkpt lat="45.83837" lon="5.37127">
        <ele>328.675</ele>
        <time>2016-06-19T08:56:55Z</time>
      </trkpt>
      <trkpt lat="45.83886" lon="5.37109">
        <ele>331.902</ele>
        <time>2016-06-19T08:57:13Z</time>
      </trkpt>
      <trkpt lat="45.83931" lon="5.37083">
        <ele>335.054</ele>
        <time>2016-06-19T08:57:31Z</time>
      </trkpt>
      <trkpt lat="45.83964" lon="5.37057">
        <ele>336.452</ele>
        <time>2016-06-19T08:57:47Z</time>
      </trkpt>
      <trkpt lat="45.83983" lon="5.36998">
        <ele>337.083</ele>
        <time>2016-06-19T08:58:05Z</time>
      </trkpt>
      <trkpt lat="45.83999" lon="5.36951">
        <ele>336.484</ele>
        <time>2016-06-19T08:58:21Z</time>
      </trkpt>
      <trkpt lat="45.84026" lon="5.36908">
        <ele>334.938</ele>
        <time>2016-06-19T08:58:34Z</time>
      </trkpt>
      <trkpt lat="45.84072" lon="5.36868">
        <ele>335.553</ele>
        <time>2016-06-19T08:58:48Z</time>
      </trkpt>
      <trkpt lat="45.84112" lon="5.36838">
        <ele>336.592</ele>
        <time>2016-06-19T08:59:02Z</time>
      </trkpt>
      <trkpt lat="45.84155" lon="5.36795">
        <ele>337.638</ele>
        <time>2016-06-19T08:59:19Z</time>
      </trkpt>
      <trkpt lat="45.84191" lon="5.36738">
        <ele>339.374</ele>
        <time>2016-06-19T08:59:38Z</time>
      </trkpt>
      <trkpt lat="45.84223" lon="5.36698">
        <ele>340.563</ele>
        <time>2016-06-19T08:59:54Z</time>
      </trkpt>
      <trkpt lat="45.84269" lon="5.36669">
        <ele>342.426</ele>
        <time>2016-06-19T09:00:15Z</time>
      </trkpt>
      <trkpt lat="45.84291" lon="5.36646">
        <ele>341.773</ele>
        <time>2016-06-19T09:00:28Z</time>
      </trkpt>
      <trkpt lat="45.84299" lon="5.36634">
        <ele>340.595</ele>
        <time>2016-06-19T09:00:40Z</time>
      </trkpt>
      <trkpt lat="45.84302" lon="5.36622">
        <ele>341.699</ele>
        <time>2016-06-19T09:01:45Z</time>
      </trkpt>
      <trkpt lat="45.84282" lon="5.3661">
        <ele>342.82</ele>
        <time>2016-06-19T09:01:57Z</time>
      </trkpt>
      <trkpt lat="45.84265" lon="5.36608">
        <ele>342.955</ele>
        <time>2016-06-19T09:02:13Z</time>
      </trkpt>
      <trkpt lat="45.84226" lon="5.36587">
        <ele>341.575</ele>
        <time>2016-06-19T09:02:25Z</time>
      </trkpt>
      <trkpt lat="45.84195" lon="5.36577">
        <ele>339.837</ele>
        <time>2016-06-19T09:02:36Z</time>
      </trkpt>
      <trkpt lat="45.84154" lon="5.3656">
        <ele>337.163</ele>
        <time>2016-06-19T09:02:47Z</time>
      </trkpt>
      <trkpt lat="45.84102" lon="5.3654">
        <ele>333.532</ele>
        <time>2016-06-19T09:03:00Z</time>
      </trkpt>
      <trkpt lat="45.8408" lon="5.36535">
        <ele>332.058</ele>
        <time>2016-06-19T09:03:06Z</time>
      </trkpt>
      <trkpt lat="45.84072" lon="5.36524">
        <ele>331.122</ele>
        <time>2016-06-19T09:03:10Z</time>
      </trkpt>
      <trkpt lat="45.84067" lon="5.36513">
        <ele>329.965</ele>
        <time>2016-06-19T09:03:23Z</time>
      </trkpt>
      <trkpt lat="45.84066" lon="5.36508">
        <ele>329.809</ele>
        <time>2016-06-19T09:03:32Z</time>
      </trkpt>
      <trkpt lat="45.84071" lon="5.36489">
        <ele>326.992</ele>
        <time>2016-06-19T09:03:42Z</time>
      </trkpt>
      <trkpt lat="45.84069" lon="5.36472">
        <ele>325.42</ele>
        <time>2016-06-19T09:03:47Z</time>
      </trkpt>
      <trkpt lat="45.84043" lon="5.3643">
        <ele>324.548</ele>
        <time>2016-06-19T09:04:01Z</time>
      </trkpt>
      <trkpt lat="45.83999" lon="5.36411">
        <ele>323.409</ele>
        <time>2016-06-19T09:04:13Z</time>
      </trkpt>
      <trkpt lat="45.8397" lon="5.36379">
        <ele>320.918</ele>
        <time>2016-06-19T09:04:24Z</time>
      </trkpt>
      <trkpt lat="45.83953" lon="5.36359">
        <ele>319.623</ele>
        <time>2016-06-19T09:04:29Z</time>
      </trkpt>
      <trkpt lat="45.83943" lon="5.36352">
        <ele>319.158</ele>
        <time>2016-06-19T09:04:32Z</time>
      </trkpt>
      <trkpt lat="45.83915" lon="5.36335">
        <ele>320.55</ele>
        <time>2016-06-19T09:04:43Z</time>
      </trkpt>
      <trkpt lat="45.83911" lon="5.36336">
        <ele>321.911</ele>
        <time>2016-06-19T09:04:52Z</time>
      </trkpt>
      <trkpt lat="45.83888" lon="5.36343">
        <ele>322.191</ele>
        <time>2016-06-19T09:04:59Z</time>
      </trkpt>
      <trkpt lat="45.83869" lon="5.36341">
        <ele>321.015</ele>
        <time>2016-06-19T09:05:05Z</time>
      </trkpt>
      <trkpt lat="45.83857" lon="5.36343">
        <ele>320.643</ele>
        <time>2016-06-19T09:05:09Z</time>
      </trkpt>
      <trkpt lat="45.83819" lon="5.36327">
        <ele>317.525</ele>
        <time>2016-06-19T09:05:22Z</time>
      </trkpt>
      <trkpt lat="45.83798" lon="5.36337">
        <ele>315.866</ele>
        <time>2016-06-19T09:05:32Z</time>
      </trkpt>
      <trkpt lat="45.83788" lon="5.36344">
        <ele>315.929</ele>
        <time>2016-06-19T09:05:35Z</time>
      </trkpt>
      <trkpt lat="45.83782" lon="5.36351">
        <ele>315.361</ele>
        <time>2016-06-19T09:05:38Z</time>
      </trkpt>
      <trkpt lat="45.83778" lon="5.36352">
        <ele>313.897</ele>
        <time>2016-06-19T09:06:29Z</time>
      </trkpt>
      <trkpt lat="45.83772" lon="5.36323">
        <ele>313.012</ele>
        <time>2016-06-19T09:07:17Z</time>
      </trkpt>
      <trkpt lat="45.83768" lon="5.36317">
        <ele>313.096</ele>
        <time>2016-06-19T09:07:20Z</time>
      </trkpt>
      <trkpt lat="45.83763" lon="5.36305">
        <ele>311.326</ele>
        <time>2016-06-19T09:07:25Z</time>
      </trkpt>
      <trkpt lat="45.83756" lon="5.363">
        <ele>310.89</ele>
        <time>2016-06-19T09:07:27Z</time>
      </trkpt>
      <trkpt lat="45.83735" lon="5.36248">
        <ele>309.865</ele>
        <time>2016-06-19T09:07:41Z</time>
      </trkpt>
      <trkpt lat="45.83726" lon="5.36198">
        <ele>308.811</ele>
        <time>2016-06-19T09:07:54Z</time>
      </trkpt>
      <trkpt lat="45.83724" lon="5.36192">
        <ele>308.253</ele>
        <time>2016-06-19T09:07:56Z</time>
      </trkpt>
      <trkpt lat="45.8371" lon="5.36177">
        <ele>305.846</ele>
        <time>2016-06-19T09:08:06Z</time>
      </trkpt>
      <trkpt lat="45.83705" lon="5.36176">
        <ele>303.793</ele>
        <time>2016-06-19T09:08:10Z</time>
      </trkpt>
      <trkpt lat="45.83692" lon="5.36172">
        <ele>301.201</ele>
        <time>2016-06-19T09:08:16Z</time>
      </trkpt>
      <trkpt lat="45.83688" lon="5.36169">
        <ele>299.547</ele>
        <time>2016-06-19T09:08:18Z</time>
      </trkpt>
      <trkpt lat="45.83676" lon="5.36156">
        <ele>296.333</ele>
        <time>2016-06-19T09:08:27Z</time>
      </trkpt>
      <trkpt lat="45.83674" lon="5.36152">
        <ele>296.008</ele>
        <time>2016-06-19T09:08:36Z</time>
      </trkpt>
      <trkpt lat="45.8368" lon="5.36148">
        <ele>296.225</ele>
        <time>2016-06-19T09:08:42Z</time>
      </trkpt>
      <trkpt lat="45.83702" lon="5.36141">
        <ele>297.552</ele>
        <time>2016-06-19T09:08:57Z</time>
      </trkpt>
      <trkpt lat="45.83727" lon="5.36127">
        <ele>296.915</ele>
        <time>2016-06-19T09:09:11Z</time>
      </trkpt>
      <trkpt lat="45.8374" lon="5.36125">
        <ele>295.987</ele>
        <time>2016-06-19T09:09:22Z</time>
      </trkpt>
      <trkpt lat="45.83741" lon="5.36122">
        <ele>295.657</ele>
        <time>2016-06-19T09:12:36Z</time>
      </trkpt>
      <trkpt lat="45.83743" lon="5.3612">
        <ele>296.915</ele>
        <time>2016-06-19T09:12:38Z</time>
      </trkpt>
      <trkpt lat="45.83764" lon="5.36092">
        <ele>297.517</ele>
        <time>2016-06-19T09:12:49Z</time>
      </trkpt>
      <trkpt lat="45.83811" lon="5.36016">
        <ele>298.788</ele>
        <time>2016-06-19T09:13:07Z</time>
      </trkpt>
      <trkpt lat="45.83845" lon="5.35946">
        <ele>300.12</ele>
        <time>2016-06-19T09:13:26Z</time>
      </trkpt>
      <trkpt lat="45.83876" lon="5.35876">
        <ele>303.626</ele>
        <time>2016-06-19T09:13:42Z</time>
      </trkpt>
      <trkpt lat="45.83902" lon="5.35843">
        <ele>305.862</ele>
        <time>2016-06-19T09:13:57Z</time>
      </trkpt>
      <trkpt lat="45.8393" lon="5.35805">
        <ele>307.947</ele>
        <time>2016-06-19T09:14:16Z</time>
      </trkpt>
      <trkpt lat="45.83959" lon="5.35764">
        <ele>309.505</ele>
        <time>2016-06-19T09:14:35Z</time>
      </trkpt>
      <trkpt lat="45.83982" lon="5.3573">
        <ele>309.69</ele>
        <time>2016-06-19T09:14:51Z</time>
      </trkpt>
      <trkpt lat="45.8401" lon="5.35689">
        <ele>311.574</ele>
        <time>2016-06-19T09:15:08Z</time>
      </trkpt>
      <trkpt lat="45.84036" lon="5.35651">
        <ele>312.637</ele>
        <time>2016-06-19T09:15:27Z</time>
      </trkpt>
      <trkpt lat="45.84051" lon="5.35618">
        <ele>314.433</ele>
        <time>2016-06-19T09:15:41Z</time>
      </trkpt>
      <trkpt lat="45.84066" lon="5.35589">
        <ele>316.021</ele>
        <time>2016-06-19T09:15:53Z</time>
      </trkpt>
      <trkpt lat="45.84069" lon="5.35573">
        <ele>316.613</ele>
        <time>2016-06-19T09:16:00Z</time>
      </trkpt>
      <trkpt lat="45.84071" lon="5.35564">
        <ele>317.385</ele>
        <time>2016-06-19T09:16:04Z</time>
      </trkpt>
      <trkpt lat="45.84069" lon="5.35555">
        <ele>317.411</ele>
        <time>2016-06-19T09:16:08Z</time>
      </trkpt>
      <trkpt lat="45.84063" lon="5.35533">
        <ele>319.39</ele>
        <time>2016-06-19T09:16:16Z</time>
      </trkpt>
      <trkpt lat="45.84058" lon="5.35516">
        <ele>321.43</ele>
        <time>2016-06-19T09:16:22Z</time>
      </trkpt>
      <trkpt lat="45.84046" lon="5.35483">
        <ele>322.746</ele>
        <time>2016-06-19T09:16:38Z</time>
      </trkpt>
      <trkpt lat="45.84043" lon="5.35484">
        <ele>321.663</ele>
        <time>2016-06-19T09:16:50Z</time>
      </trkpt>
      <trkpt lat="45.84021" lon="5.35485">
        <ele>322.619</ele>
        <time>2016-06-19T09:21:28Z</time>
      </trkpt>
      <trkpt lat="45.84019" lon="5.35485">
        <ele>322.167</ele>
        <time>2016-06-19T09:21:43Z</time>
      </trkpt>
      <trkpt lat="45.83994" lon="5.35483">
        <ele>324.347</ele>
        <time>2016-06-19T09:22:00Z</time>
      </trkpt>
      <trkpt lat="45.83987" lon="5.35482">
        <ele>324.366</ele>
        <time>2016-06-19T09:22:03Z</time>
      </trkpt>
      <trkpt lat="45.8398" lon="5.3548">
        <ele>325.42</ele>
        <time>2016-06-19T09:22:07Z</time>
      </trkpt>
      <trkpt lat="45.83967" lon="5.35478">
        <ele>326.636</ele>
        <time>2016-06-19T09:22:14Z</time>
      </trkpt>
      <trkpt lat="45.83951" lon="5.35472">
        <ele>326.794</ele>
        <time>2016-06-19T09:22:20Z</time>
      </trkpt>
      <trkpt lat="45.83944" lon="5.35487">
        <ele>327.175</ele>
        <time>2016-06-19T09:22:24Z</time>
      </trkpt>
      <trkpt lat="45.8391" lon="5.3555">
        <ele>326.171</ele>
        <time>2016-06-19T09:22:42Z</time>
      </trkpt>
      <trkpt lat="45.83908" lon="5.35561">
        <ele>325.88</ele>
        <time>2016-06-19T09:22:44Z</time>
      </trkpt>
      <trkpt lat="45.83904" lon="5.35581">
        <ele>326.334</ele>
        <time>2016-06-19T09:22:47Z</time>
      </trkpt>
      <trkpt lat="45.83877" lon="5.35669">
        <ele>324.265</ele>
        <time>2016-06-19T09:22:58Z</time>
      </trkpt>
      <trkpt lat="45.83841" lon="5.35753">
        <ele>322.154</ele>
        <time>2016-06-19T09:23:10Z</time>
      </trkpt>
      <trkpt lat="45.83822" lon="5.35772">
        <ele>320.751</ele>
        <time>2016-06-19T09:23:14Z</time>
      </trkpt>
      <trkpt lat="45.83817" lon="5.35792">
        <ele>319.53</ele>
        <time>2016-06-19T09:23:17Z</time>
      </trkpt>
      <trkpt lat="45.83799" lon="5.3581">
        <ele>316.777</ele>
        <time>2016-06-19T09:23:22Z</time>
      </trkpt>
      <trkpt lat="45.83773" lon="5.35807">
        <ele>314.526</ele>
        <time>2016-06-19T09:23:27Z</time>
      </trkpt>
      <trkpt lat="45.83763" lon="5.35808">
        <ele>313.683</ele>
        <time>2016-06-19T09:23:29Z</time>
      </trkpt>
      <trkpt lat="45.83735" lon="5.35807">
        <ele>310.134</ele>
        <time>2016-06-19T09:23:35Z</time>
      </trkpt>
      <trkpt lat="45.83732" lon="5.35806">
        <ele>310.134</ele>
        <time>2016-06-19T09:23:36Z</time>
      </trkpt>
      <trkpt lat="45.83708" lon="5.358">
        <ele>307.635</ele>
        <time>2016-06-19T09:23:47Z</time>
      </trkpt>
      <trkpt lat="45.8369" lon="5.35802">
        <ele>306.348</ele>
        <time>2016-06-19T09:23:53Z</time>
      </trkpt>
      <trkpt lat="45.83667" lon="5.35808">
        <ele>304.382</ele>
        <time>2016-06-19T09:23:59Z</time>
      </trkpt>
      <trkpt lat="45.83647" lon="5.35813">
        <ele>303.449</ele>
        <time>2016-06-19T09:24:03Z</time>
      </trkpt>
      <trkpt lat="45.83619" lon="5.35805">
        <ele>303.082</ele>
        <time>2016-06-19T09:24:13Z</time>
      </trkpt>
      <trkpt lat="45.83585" lon="5.35794">
        <ele>303.053</ele>
        <time>2016-06-19T09:24:24Z</time>
      </trkpt>
      <trkpt lat="45.83539" lon="5.3578">
        <ele>303.399</ele>
        <time>2016-06-19T09:24:37Z</time>
      </trkpt>
      <trkpt lat="45.83497" lon="5.35756">
        <ele>303.587</ele>
        <time>2016-06-19T09:24:53Z</time>
      </trkpt>
      <trkpt lat="45.83496" lon="5.35744">
        <ele>304.091</ele>
        <time>2016-06-19T09:24:59Z</time>
      </trkpt>
      <trkpt lat="45.83514" lon="5.35723">
        <ele>306.662</ele>
        <time>2016-06-19T09:25:13Z</time>
      </trkpt>
      <trkpt lat="45.83515" lon="5.35704">
        <ele>308.221</ele>
        <time>2016-06-19T09:25:19Z</time>
      </trkpt>
      <trkpt lat="45.83514" lon="5.35696">
        <ele>308.435</ele>
        <time>2016-06-19T09:25:27Z</time>
      </trkpt>
      <trkpt lat="45.83503" lon="5.35683">
        <ele>309.344</ele>
        <time>2016-06-19T09:25:46Z</time>
      </trkpt>
      <trkpt lat="45.83479" lon="5.35657">
        <ele>308.774</ele>
        <time>2016-06-19T09:27:12Z</time>
      </trkpt>
      <trkpt lat="45.8345" lon="5.35641">
        <ele>309.336</ele>
        <time>2016-06-19T09:27:27Z</time>
      </trkpt>
      <trkpt lat="45.83394" lon="5.35623">
        <ele>309.397</ele>
        <time>2016-06-19T09:27:44Z</time>
      </trkpt>
      <trkpt lat="45.83362" lon="5.35597">
        <ele>312.531</ele>
        <time>2016-06-19T09:28:01Z</time>
      </trkpt>
      <trkpt lat="45.83355" lon="5.35594">
        <ele>312.526</ele>
        <time>2016-06-19T09:28:05Z</time>
      </trkpt>
      <trkpt lat="45.83348" lon="5.35594">
        <ele>312.082</ele>
        <time>2016-06-19T09:28:07Z</time>
      </trkpt>
      <trkpt lat="45.83333" lon="5.35592">
        <ele>311.035</ele>
        <time>2016-06-19T09:28:10Z</time>
      </trkpt>
      <trkpt lat="45.83308" lon="5.35581">
        <ele>307.616</ele>
        <time>2016-06-19T09:28:17Z</time>
      </trkpt>
      <trkpt lat="45.83301" lon="5.35578">
        <ele>307.616</ele>
        <time>2016-06-19T09:28:18Z</time>
      </trkpt>
      <trkpt lat="45.83275" lon="5.35567">
        <ele>303.597</ele>
        <time>2016-06-19T09:28:23Z</time>
      </trkpt>
      <trkpt lat="45.83259" lon="5.35562">
        <ele>301.132</ele>
        <time>2016-06-19T09:28:26Z</time>
      </trkpt>
      <trkpt lat="45.83238" lon="5.35585">
        <ele>298.841</ele>
        <time>2016-06-19T09:28:31Z</time>
      </trkpt>
      <trkpt lat="45.83214" lon="5.3563">
        <ele>296.323</ele>
        <time>2016-06-19T09:28:37Z</time>
      </trkpt>
      <trkpt lat="45.83198" lon="5.35673">
        <ele>294.64</ele>
        <time>2016-06-19T09:28:46Z</time>
      </trkpt>
      <trkpt lat="45.83184" lon="5.35747">
        <ele>293.673</ele>
        <time>2016-06-19T09:28:58Z</time>
      </trkpt>
      <trkpt lat="45.83175" lon="5.35792">
        <ele>293.113</ele>
        <time>2016-06-19T09:29:08Z</time>
      </trkpt>
      <trkpt lat="45.83154" lon="5.35861">
        <ele>295.541</ele>
        <time>2016-06-19T09:29:26Z</time>
      </trkpt>
      <trkpt lat="45.83161" lon="5.3589">
        <ele>296.891</ele>
        <time>2016-06-19T09:29:38Z</time>
      </trkpt>
      <trkpt lat="45.83178" lon="5.35905">
        <ele>296.828</ele>
        <time>2016-06-19T09:29:46Z</time>
      </trkpt>
      <trkpt lat="45.83173" lon="5.35949">
        <ele>297.229</ele>
        <time>2016-06-19T09:30:00Z</time>
      </trkpt>
      <trkpt lat="45.83171" lon="5.35957">
        <ele>298.447</ele>
        <time>2016-06-19T09:30:11Z</time>
      </trkpt>
      <trkpt lat="45.83138" lon="5.35943">
        <ele>298.875</ele>
        <time>2016-06-19T09:31:02Z</time>
      </trkpt>
      <trkpt lat="45.83104" lon="5.3593">
        <ele>299.118</ele>
        <time>2016-06-19T09:31:15Z</time>
      </trkpt>
      <trkpt lat="45.83098" lon="5.35926">
        <ele>298.371</ele>
        <time>2016-06-19T09:31:18Z</time>
      </trkpt>
      <trkpt lat="45.83064" lon="5.35908">
        <ele>295.501</ele>
        <time>2016-06-19T09:31:31Z</time>
      </trkpt>
      <trkpt lat="45.83038" lon="5.35898">
        <ele>293.839</ele>
        <time>2016-06-19T09:31:42Z</time>
      </trkpt>
      <trkpt lat="45.83021" lon="5.35887">
        <ele>294.016</ele>
        <time>2016-06-19T09:31:53Z</time>
      </trkpt>
      <trkpt lat="45.8298" lon="5.35868">
        <ele>292.309</ele>
        <time>2016-06-19T09:32:06Z</time>
      </trkpt>
      <trkpt lat="45.82937" lon="5.3585">
        <ele>291.577</ele>
        <time>2016-06-19T09:32:20Z</time>
      </trkpt>
      <trkpt lat="45.82888" lon="5.35861">
        <ele>291.971</ele>
        <time>2016-06-19T09:32:33Z</time>
      </trkpt>
      <trkpt lat="45.82824" lon="5.35883">
        <ele>291.081</ele>
        <time>2016-06-19T09:32:51Z</time>
      </trkpt>
      <trkpt lat="45.82791" lon="5.35885">
        <ele>290.822</ele>
        <time>2016-06-19T09:33:01Z</time>
      </trkpt>
      <trkpt lat="45.82748" lon="5.35859">
        <ele>289.799</ele>
        <time>2016-06-19T09:33:14Z</time>
      </trkpt>
      <trkpt lat="45.82738" lon="5.35849">
        <ele>288.578</ele>
        <time>2016-06-19T09:33:17Z</time>
      </trkpt>
      <trkpt lat="45.82734" lon="5.35845">
        <ele>288.161</ele>
        <time>2016-06-19T09:33:18Z</time>
      </trkpt>
      <trkpt lat="45.82725" lon="5.35818">
        <ele>287.344</ele>
        <time>2016-06-19T09:33:23Z</time>
      </trkpt>
      <trkpt lat="45.8274" lon="5.35743">
        <ele>286.171</ele>
        <time>2016-06-19T09:33:36Z</time>
      </trkpt>
      <trkpt lat="45.82751" lon="5.35697">
        <ele>285.912</ele>
        <time>2016-06-19T09:33:45Z</time>
      </trkpt>
      <trkpt lat="45.82755" lon="5.35623">
        <ele>285.452</ele>
        <time>2016-06-19T09:33:59Z</time>
      </trkpt>
      <trkpt lat="45.82762" lon="5.35553">
        <ele>285.78</ele>
        <time>2016-06-19T09:34:14Z</time>
      </trkpt>
      <trkpt lat="45.82764" lon="5.35532">
        <ele>285.643</ele>
        <time>2016-06-19T09:34:19Z</time>
      </trkpt>
      <trkpt lat="45.82744" lon="5.35492">
        <ele>287.009</ele>
        <time>2016-06-19T09:34:32Z</time>
      </trkpt>
      <trkpt lat="45.82716" lon="5.3547">
        <ele>285.328</ele>
        <time>2016-06-19T09:34:42Z</time>
      </trkpt>
      <trkpt lat="45.82694" lon="5.35456">
        <ele>284.385</ele>
        <time>2016-06-19T09:34:52Z</time>
      </trkpt>
      <trkpt lat="45.82685" lon="5.35451">
        <ele>284.345</ele>
        <time>2016-06-19T09:35:04Z</time>
      </trkpt>
      <trkpt lat="45.82673" lon="5.3544">
        <ele>284.853</ele>
        <time>2016-06-19T09:37:31Z</time>
      </trkpt>
      <trkpt lat="45.82644" lon="5.35439">
        <ele>283.989</ele>
        <time>2016-06-19T09:37:39Z</time>
      </trkpt>
      <trkpt lat="45.8263" lon="5.35445">
        <ele>283.79</ele>
        <time>2016-06-19T09:37:42Z</time>
      </trkpt>
      <trkpt lat="45.82617" lon="5.35452">
        <ele>283.952</ele>
        <time>2016-06-19T09:37:45Z</time>
      </trkpt>
      <trkpt lat="45.826" lon="5.35437">
        <ele>283.109</ele>
        <time>2016-06-19T09:37:52Z</time>
      </trkpt>
      <trkpt lat="45.82591" lon="5.3538">
        <ele>284.528</ele>
        <time>2016-06-19T09:38:07Z</time>
      </trkpt>
      <trkpt lat="45.82574" lon="5.35366">
        <ele>285.74</ele>
        <time>2016-06-19T09:38:15Z</time>
      </trkpt>
      <trkpt lat="45.82571" lon="5.35352">
        <ele>286.486</ele>
        <time>2016-06-19T09:38:19Z</time>
      </trkpt>
      <trkpt lat="45.8258" lon="5.35311">
        <ele>287.606</ele>
        <time>2016-06-19T09:38:35Z</time>
      </trkpt>
      <trkpt lat="45.82582" lon="5.35295">
        <ele>287.796</ele>
        <time>2016-06-19T09:38:44Z</time>
      </trkpt>
      <trkpt lat="45.82568" lon="5.35294">
        <ele>287.373</ele>
        <time>2016-06-19T09:38:50Z</time>
      </trkpt>
      <trkpt lat="45.82541" lon="5.35293">
        <ele>286.819</ele>
        <time>2016-06-19T09:38:58Z</time>
      </trkpt>
      <trkpt lat="45.82497" lon="5.35294">
        <ele>285.883</ele>
        <time>2016-06-19T09:39:07Z</time>
      </trkpt>
      <trkpt lat="45.82456" lon="5.35289">
        <ele>284.85</ele>
        <time>2016-06-19T09:39:14Z</time>
      </trkpt>
      <trkpt lat="45.82354" lon="5.35247">
        <ele>283.777</ele>
        <time>2016-06-19T09:39:33Z</time>
      </trkpt>
      <trkpt lat="45.8233" lon="5.35238">
        <ele>282.403</ele>
        <time>2016-06-19T09:39:37Z</time>
      </trkpt>
      <trkpt lat="45.82297" lon="5.35223">
        <ele>280.665</ele>
        <time>2016-06-19T09:39:44Z</time>
      </trkpt>
      <trkpt lat="45.82263" lon="5.35162">
        <ele>281.256</ele>
        <time>2016-06-19T09:39:59Z</time>
      </trkpt>
      <trkpt lat="45.8225" lon="5.3513">
        <ele>280.958</ele>
        <time>2016-06-19T09:41:17Z</time>
      </trkpt>
      <trkpt lat="45.8223" lon="5.35105">
        <ele>279.56</ele>
        <time>2016-06-19T09:41:28Z</time>
      </trkpt>
      <trkpt lat="45.82198" lon="5.35057">
        <ele>279.169</ele>
        <time>2016-06-19T09:41:47Z</time>
      </trkpt>
      <trkpt lat="45.8218" lon="5.35032">
        <ele>277.954</ele>
        <time>2016-06-19T09:42:04Z</time>
      </trkpt>
      <trkpt lat="45.82174" lon="5.35025">
        <ele>277.663</ele>
        <time>2016-06-19T09:42:27Z</time>
      </trkpt>
      <trkpt lat="45.82176" lon="5.35018">
        <ele>278.606</ele>
        <time>2016-06-19T09:42:32Z</time>
      </trkpt>
      <trkpt lat="45.8219" lon="5.35019">
        <ele>280.321</ele>
        <time>2016-06-19T09:42:45Z</time>
      </trkpt>
      <trkpt lat="45.82196" lon="5.35013">
        <ele>281.396</ele>
        <time>2016-06-19T09:43:02Z</time>
      </trkpt>
      <trkpt lat="45.82215" lon="5.34993">
        <ele>284.055</ele>
        <time>2016-06-19T09:43:17Z</time>
      </trkpt>
      <trkpt lat="45.82249" lon="5.34964">
        <ele>286.594</ele>
        <time>2016-06-19T09:43:36Z</time>
      </trkpt>
      <trkpt lat="45.82264" lon="5.34942">
        <ele>286.694</ele>
        <time>2016-06-19T09:43:46Z</time>
      </trkpt>
      <trkpt lat="45.82264" lon="5.34928">
        <ele>287.262</ele>
        <time>2016-06-19T09:43:51Z</time>
      </trkpt>
      <trkpt lat="45.82258" lon="5.3488">
        <ele>285.711</ele>
        <time>2016-06-19T09:44:06Z</time>
      </trkpt>
      <trkpt lat="45.82276" lon="5.34872">
        <ele>285.902</ele>
        <time>2016-06-19T09:44:14Z</time>
      </trkpt>
      <trkpt lat="45.82297" lon="5.34849">
        <ele>286.412</ele>
        <time>2016-06-19T09:44:26Z</time>
      </trkpt>
      <trkpt lat="45.82302" lon="5.34792">
        <ele>286.578</ele>
        <time>2016-06-19T09:44:42Z</time>
      </trkpt>
      <trkpt lat="45.82304" lon="5.34781">
        <ele>286.848</ele>
        <time>2016-06-19T09:44:45Z</time>
      </trkpt>
      <trkpt lat="45.82301" lon="5.34738">
        <ele>287.63</ele>
        <time>2016-06-19T09:44:58Z</time>
      </trkpt>
      <trkpt lat="45.82293" lon="5.34715">
        <ele>285.434</ele>
        <time>2016-06-19T09:45:08Z</time>
      </trkpt>
      <trkpt lat="45.82289" lon="5.34709">
        <ele>284.007</ele>
        <time>2016-06-19T09:45:10Z</time>
      </trkpt>
      <trkpt lat="45.82275" lon="5.34694">
        <ele>282.718</ele>
        <time>2016-06-19T09:45:19Z</time>
      </trkpt>
      <trkpt lat="45.8227" lon="5.34692">
        <ele>281.396</ele>
        <time>2016-06-19T09:45:33Z</time>
      </trkpt>
      <trkpt lat="45.82261" lon="5.34696">
        <ele>280.797</ele>
        <time>2016-06-19T09:45:48Z</time>
      </trkpt>
      <trkpt lat="45.82258" lon="5.34696">
        <ele>281.098</ele>
        <time>2016-06-19T09:45:54Z</time>
      </trkpt>
      <trkpt lat="45.82257" lon="5.34694">
        <ele>280.62</ele>
        <time>2016-06-19T09:47:21Z</time>
      </trkpt>
      <trkpt lat="45.82266" lon="5.34695">
        <ele>280.995</ele>
        <time>2016-06-19T09:48:16Z</time>
      </trkpt>
      <trkpt lat="45.82269" lon="5.3469">
        <ele>280.205</ele>
        <time>2016-06-19T09:48:28Z</time>
      </trkpt>
      <trkpt lat="45.82275" lon="5.3467">
        <ele>277.755</ele>
        <time>2016-06-19T09:48:38Z</time>
      </trkpt>
      <trkpt lat="45.8228" lon="5.34662">
        <ele>275.631</ele>
        <time>2016-06-19T09:48:42Z</time>
      </trkpt>
      <trkpt lat="45.82285" lon="5.34661">
        <ele>274.426</ele>
        <time>2016-06-19T09:48:57Z</time>
      </trkpt>
      <trkpt lat="45.82289" lon="5.34667">
        <ele>274.719</ele>
        <time>2016-06-19T09:49:16Z</time>
      </trkpt>
      <trkpt lat="45.82287" lon="5.3467">
        <ele>274.579</ele>
        <time>2016-06-19T09:49:39Z</time>
      </trkpt>
      <trkpt lat="45.82284" lon="5.34665">
        <ele>274.571</ele>
        <time>2016-06-19T09:50:05Z</time>
      </trkpt>
      <trkpt lat="45.82284" lon="5.34661">
        <ele>274.833</ele>
        <time>2016-06-19T09:50:08Z</time>
      </trkpt>
      <trkpt lat="45.82277" lon="5.34652">
        <ele>275.641</ele>
        <time>2016-06-19T09:50:15Z</time>
      </trkpt>
      <trkpt lat="45.82263" lon="5.34647">
        <ele>275.893</ele>
        <time>2016-06-19T09:50:29Z</time>
      </trkpt>
      <trkpt lat="45.82225" lon="5.34634">
        <ele>275.85</ele>
        <time>2016-06-19T09:52:24Z</time>
      </trkpt>
      <trkpt lat="45.82178" lon="5.34623">
        <ele>275.224</ele>
        <time>2016-06-19T09:52:38Z</time>
      </trkpt>
      <trkpt lat="45.82133" lon="5.34596">
        <ele>274.149</ele>
        <time>2016-06-19T09:52:52Z</time>
      </trkpt>
      <trkpt lat="45.8209" lon="5.34594">
        <ele>271.932</ele>
        <time>2016-06-19T09:53:04Z</time>
      </trkpt>
      <trkpt lat="45.82068" lon="5.34588">
        <ele>271.194</ele>
        <time>2016-06-19T09:53:16Z</time>
      </trkpt>
      <trkpt lat="45.82044" lon="5.34573">
        <ele>270.5</ele>
        <time>2016-06-19T09:53:30Z</time>
      </trkpt>
      <trkpt lat="45.82" lon="5.34549">
        <ele>269.926</ele>
        <time>2016-06-19T09:53:45Z</time>
      </trkpt>
      <trkpt lat="45.81933" lon="5.34506">
        <ele>266.652</ele>
        <time>2016-06-19T09:54:01Z</time>
      </trkpt>
      <trkpt lat="45.81903" lon="5.34482">
        <ele>264.919</ele>
        <time>2016-06-19T09:54:08Z</time>
      </trkpt>
      <trkpt lat="45.81879" lon="5.34471">
        <ele>263.585</ele>
        <time>2016-06-19T09:54:13Z</time>
      </trkpt>
      <trkpt lat="45.81856" lon="5.34456">
        <ele>261.827</ele>
        <time>2016-06-19T09:54:18Z</time>
      </trkpt>
      <trkpt lat="45.81848" lon="5.34439">
        <ele>260.623</ele>
        <time>2016-06-19T09:54:22Z</time>
      </trkpt>
      <trkpt lat="45.81846" lon="5.34418">
        <ele>259.867</ele>
        <time>2016-06-19T09:54:35Z</time>
      </trkpt>
      <trkpt lat="45.81836" lon="5.3442">
        <ele>259.537</ele>
        <time>2016-06-19T09:54:40Z</time>
      </trkpt>
      <trkpt lat="45.81831" lon="5.34369">
        <ele>259.822</ele>
        <time>2016-06-19T09:55:00Z</time>
      </trkpt>
      <trkpt lat="45.81815" lon="5.34347">
        <ele>260.81</ele>
        <time>2016-06-19T09:55:10Z</time>
      </trkpt>
      <trkpt lat="45.81801" lon="5.34303">
        <ele>262.451</ele>
        <time>2016-06-19T09:55:22Z</time>
      </trkpt>
      <trkpt lat="45.81796" lon="5.34286">
        <ele>264.277</ele>
        <time>2016-06-19T09:55:30Z</time>
      </trkpt>
      <trkpt lat="45.81797" lon="5.34245">
        <ele>266.163</ele>
        <time>2016-06-19T09:55:42Z</time>
      </trkpt>
      <trkpt lat="45.81788" lon="5.3419">
        <ele>269.654</ele>
        <time>2016-06-19T09:56:01Z</time>
      </trkpt>
      <trkpt lat="45.81788" lon="5.34152">
        <ele>273.055</ele>
        <time>2016-06-19T09:56:11Z</time>
      </trkpt>
      <trkpt lat="45.81788" lon="5.34147">
        <ele>273.055</ele>
        <time>2016-06-19T09:56:12Z</time>
      </trkpt>
      <trkpt lat="45.81787" lon="5.3414">
        <ele>273.985</ele>
        <time>2016-06-19T09:56:16Z</time>
      </trkpt>
      <trkpt lat="45.81775" lon="5.34135">
        <ele>274.463</ele>
        <time>2016-06-19T09:56:27Z</time>
      </trkpt>
      <trkpt lat="45.81769" lon="5.34135">
        <ele>274.648</ele>
        <time>2016-06-19T09:56:31Z</time>
      </trkpt>
      <trkpt lat="45.81737" lon="5.34142">
        <ele>276.429</ele>
        <time>2016-06-19T09:56:46Z</time>
      </trkpt>
      <trkpt lat="45.81726" lon="5.34143">
        <ele>277.177</ele>
        <time>2016-06-19T09:56:52Z</time>
      </trkpt>
      <trkpt lat="45.81719" lon="5.34141">
        <ele>277.433</ele>
        <time>2016-06-19T09:56:56Z</time>
      </trkpt>
      <trkpt lat="45.8169" lon="5.34124">
        <ele>279.938</ele>
        <time>2016-06-19T09:57:12Z</time>
      </trkpt>
      <trkpt lat="45.81685" lon="5.34124">
        <ele>280.12</ele>
        <time>2016-06-19T09:57:15Z</time>
      </trkpt>
      <trkpt lat="45.81659" lon="5.34109">
        <ele>282.303</ele>
        <time>2016-06-19T09:57:27Z</time>
      </trkpt>
      <trkpt lat="45.81641" lon="5.341">
        <ele>284.292</ele>
        <time>2016-06-19T09:57:35Z</time>
      </trkpt>
      <trkpt lat="45.8162" lon="5.3409">
        <ele>285.902</ele>
        <time>2016-06-19T09:57:46Z</time>
      </trkpt>
      <trkpt lat="45.81602" lon="5.34082">
        <ele>288.005</ele>
        <time>2016-06-19T09:57:55Z</time>
      </trkpt>
      <trkpt lat="45.81584" lon="5.34078">
        <ele>289.371</ele>
        <time>2016-06-19T09:58:04Z</time>
      </trkpt>
      <trkpt lat="45.81553" lon="5.3407">
        <ele>292.436</ele>
        <time>2016-06-19T09:58:20Z</time>
      </trkpt>
      <trkpt lat="45.81538" lon="5.34065">
        <ele>294.368</ele>
        <time>2016-06-19T09:58:27Z</time>
      </trkpt>
      <trkpt lat="45.81522" lon="5.34063">
        <ele>296.178</ele>
        <time>2016-06-19T09:58:35Z</time>
      </trkpt>
      <trkpt lat="45.81519" lon="5.34063">
        <ele>296.032</ele>
        <time>2016-06-19T09:58:37Z</time>
      </trkpt>
      <trkpt lat="45.81513" lon="5.34066">
        <ele>296.799</ele>
        <time>2016-06-19T09:58:53Z</time>
      </trkpt>
      <trkpt lat="45.81509" lon="5.34068">
        <ele>296.548</ele>
        <time>2016-06-19T10:01:29Z</time>
      </trkpt>
      <trkpt lat="45.81498" lon="5.34082">
        <ele>297.961</ele>
        <time>2016-06-19T10:01:36Z</time>
      </trkpt>
      <trkpt lat="45.8147" lon="5.3411">
        <ele>296.873</ele>
        <time>2016-06-19T10:01:50Z</time>
      </trkpt>
      <trkpt lat="45.81459" lon="5.34123">
        <ele>295.282</ele>
        <time>2016-06-19T10:01:56Z</time>
      </trkpt>
      <trkpt lat="45.81447" lon="5.34132">
        <ele>294.101</ele>
        <time>2016-06-19T10:02:03Z</time>
      </trkpt>
      <trkpt lat="45.81442" lon="5.34143">
        <ele>292.706</ele>
        <time>2016-06-19T10:02:07Z</time>
      </trkpt>
      <trkpt lat="45.81439" lon="5.34147">
        <ele>292.019</ele>
        <time>2016-06-19T10:02:09Z</time>
      </trkpt>
      <trkpt lat="45.81428" lon="5.34143">
        <ele>294.13</ele>
        <time>2016-06-19T10:02:16Z</time>
      </trkpt>
      <trkpt lat="45.81424" lon="5.34142">
        <ele>295.475</ele>
        <time>2016-06-19T10:02:19Z</time>
      </trkpt>
      <trkpt lat="45.81401" lon="5.34166">
        <ele>293.757</ele>
        <time>2016-06-19T10:02:32Z</time>
      </trkpt>
      <trkpt lat="45.81378" lon="5.34199">
        <ele>291.942</ele>
        <time>2016-06-19T10:02:44Z</time>
      </trkpt>
      <trkpt lat="45.81376" lon="5.34201">
        <ele>290.053</ele>
        <time>2016-06-19T10:03:00Z</time>
      </trkpt>
      <trkpt lat="45.8137" lon="5.34196">
        <ele>290.938</ele>
        <time>2016-06-19T10:04:24Z</time>
      </trkpt>
      <trkpt lat="45.81351" lon="5.34162">
        <ele>292.838</ele>
        <time>2016-06-19T10:04:41Z</time>
      </trkpt>
      <trkpt lat="45.81333" lon="5.34144">
        <ele>294.172</ele>
        <time>2016-06-19T10:04:53Z</time>
      </trkpt>
      <trkpt lat="45.81331" lon="5.34145">
        <ele>294.64</ele>
        <time>2016-06-19T10:04:55Z</time>
      </trkpt>
      <trkpt lat="45.81303" lon="5.34129">
        <ele>297.121</ele>
        <time>2016-06-19T10:05:09Z</time>
      </trkpt>
      <trkpt lat="45.81293" lon="5.34122">
        <ele>297.922</ele>
        <time>2016-06-19T10:05:14Z</time>
      </trkpt>
      <trkpt lat="45.81287" lon="5.34119">
        <ele>299.134</ele>
        <time>2016-06-19T10:05:18Z</time>
      </trkpt>
      <trkpt lat="45.81277" lon="5.34115">
        <ele>300.456</ele>
        <time>2016-06-19T10:05:21Z</time>
      </trkpt>
      <trkpt lat="45.8127" lon="5.3411">
        <ele>301.275</ele>
        <time>2016-06-19T10:05:25Z</time>
      </trkpt>
      <trkpt lat="45.81267" lon="5.3411">
        <ele>301.782</ele>
        <time>2016-06-19T10:05:27Z</time>
      </trkpt>
      <trkpt lat="45.81255" lon="5.34107">
        <ele>302.324</ele>
        <time>2016-06-19T10:05:33Z</time>
      </trkpt>
      <trkpt lat="45.81246" lon="5.34113">
        <ele>302.564</ele>
        <time>2016-06-19T10:05:37Z</time>
      </trkpt>
      <trkpt lat="45.81221" lon="5.34129">
        <ele>303.198</ele>
        <time>2016-06-19T10:05:48Z</time>
      </trkpt>
      <trkpt lat="45.81219" lon="5.3413">
        <ele>303.198</ele>
        <time>2016-06-19T10:05:49Z</time>
      </trkpt>
      <trkpt lat="45.812" lon="5.34138">
        <ele>303.502</ele>
        <time>2016-06-19T10:05:57Z</time>
      </trkpt>
      <trkpt lat="45.8116" lon="5.34155">
        <ele>302.162</ele>
        <time>2016-06-19T10:06:09Z</time>
      </trkpt>
      <trkpt lat="45.81155" lon="5.34158">
        <ele>301.93</ele>
        <time>2016-06-19T10:06:11Z</time>
      </trkpt>
      <trkpt lat="45.81126" lon="5.34178">
        <ele>302.189</ele>
        <time>2016-06-19T10:06:22Z</time>
      </trkpt>
      <trkpt lat="45.81114" lon="5.3419">
        <ele>302.202</ele>
        <time>2016-06-19T10:06:33Z</time>
      </trkpt>
      <trkpt lat="45.81103" lon="5.34198">
        <ele>303.151</ele>
        <time>2016-06-19T10:06:39Z</time>
      </trkpt>
      <trkpt lat="45.8109" lon="5.34209">
        <ele>303.938</ele>
        <time>2016-06-19T10:06:46Z</time>
      </trkpt>
      <trkpt lat="45.81077" lon="5.34221">
        <ele>304.385</ele>
        <time>2016-06-19T10:06:53Z</time>
      </trkpt>
      <trkpt lat="45.81068" lon="5.34223">
        <ele>304.826</ele>
        <time>2016-06-19T10:06:56Z</time>
      </trkpt>
      <trkpt lat="45.81064" lon="5.34229">
        <ele>304.829</ele>
        <time>2016-06-19T10:06:59Z</time>
      </trkpt>
      <trkpt lat="45.81042" lon="5.34243">
        <ele>307.994</ele>
        <time>2016-06-19T10:07:11Z</time>
      </trkpt>
      <trkpt lat="45.81026" lon="5.34246">
        <ele>310.227</ele>
        <time>2016-06-19T10:07:22Z</time>
      </trkpt>
      <trkpt lat="45.81021" lon="5.34249">
        <ele>311.001</ele>
        <time>2016-06-19T10:07:27Z</time>
      </trkpt>
      <trkpt lat="45.81015" lon="5.34248">
        <ele>311.73</ele>
        <time>2016-06-19T10:07:41Z</time>
      </trkpt>
      <trkpt lat="45.81" lon="5.34252">
        <ele>312.991</ele>
        <time>2016-06-19T10:07:49Z</time>
      </trkpt>
      <trkpt lat="45.80976" lon="5.34249">
        <ele>315.622</ele>
        <time>2016-06-19T10:08:03Z</time>
      </trkpt>
      <trkpt lat="45.80947" lon="5.34236">
        <ele>316.196</ele>
        <time>2016-06-19T10:08:16Z</time>
      </trkpt>
      <trkpt lat="45.80927" lon="5.34217">
        <ele>317.979</ele>
        <time>2016-06-19T10:08:27Z</time>
      </trkpt>
      <trkpt lat="45.80919" lon="5.34203">
        <ele>318.326</ele>
        <time>2016-06-19T10:08:32Z</time>
      </trkpt>
      <trkpt lat="45.80905" lon="5.34176">
        <ele>321.132</ele>
        <time>2016-06-19T10:08:45Z</time>
      </trkpt>
      <trkpt lat="45.80899" lon="5.3417">
        <ele>321.924</ele>
        <time>2016-06-19T10:08:49Z</time>
      </trkpt>
      <trkpt lat="45.8088" lon="5.34162">
        <ele>323.198</ele>
        <time>2016-06-19T10:09:02Z</time>
      </trkpt>
      <trkpt lat="45.80865" lon="5.34163">
        <ele>323.256</ele>
        <time>2016-06-19T10:09:11Z</time>
      </trkpt>
      <trkpt lat="45.80845" lon="5.34168">
        <ele>323.845</ele>
        <time>2016-06-19T10:09:20Z</time>
      </trkpt>
      <trkpt lat="45.80837" lon="5.34171">
        <ele>323.959</ele>
        <time>2016-06-19T10:09:24Z</time>
      </trkpt>
      <trkpt lat="45.80823" lon="5.34175">
        <ele>324.35</ele>
        <time>2016-06-19T10:09:30Z</time>
      </trkpt>
      <trkpt lat="45.80812" lon="5.34172">
        <ele>324.461</ele>
        <time>2016-06-19T10:09:36Z</time>
      </trkpt>
      <trkpt lat="45.80799" lon="5.34178">
        <ele>324.429</ele>
        <time>2016-06-19T10:09:41Z</time>
      </trkpt>
      <trkpt lat="45.80769" lon="5.34194">
        <ele>324.184</ele>
        <time>2016-06-19T10:09:56Z</time>
      </trkpt>
      <trkpt lat="45.80766" lon="5.34197">
        <ele>324.133</ele>
        <time>2016-06-19T10:09:59Z</time>
      </trkpt>
      <trkpt lat="45.80759" lon="5.34203">
        <ele>323.634</ele>
        <time>2016-06-19T10:10:04Z</time>
      </trkpt>
      <trkpt lat="45.80754" lon="5.34205">
        <ele>324.088</ele>
        <time>2016-06-19T10:10:06Z</time>
      </trkpt>
      <trkpt lat="45.80749" lon="5.3421">
        <ele>323.486</ele>
        <time>2016-06-19T10:10:09Z</time>
      </trkpt>
      <trkpt lat="45.80741" lon="5.34227">
        <ele>323.705</ele>
        <time>2016-06-19T10:10:16Z</time>
      </trkpt>
      <trkpt lat="45.80724" lon="5.34236">
        <ele>323.37</ele>
        <time>2016-06-19T10:10:23Z</time>
      </trkpt>
      <trkpt lat="45.80693" lon="5.34245">
        <ele>322.289</ele>
        <time>2016-06-19T10:10:35Z</time>
      </trkpt>
      <trkpt lat="45.80668" lon="5.34245">
        <ele>321.618</ele>
        <time>2016-06-19T10:10:45Z</time>
      </trkpt>
      <trkpt lat="45.80647" lon="5.34241">
        <ele>321.618</ele>
        <time>2016-06-19T10:10:53Z</time>
      </trkpt>
      <trkpt lat="45.80643" lon="5.34238">
        <ele>322.725</ele>
        <time>2016-06-19T10:10:56Z</time>
      </trkpt>
      <trkpt lat="45.80641" lon="5.34236">
        <ele>322.461</ele>
        <time>2016-06-19T10:11:04Z</time>
      </trkpt>
      <trkpt lat="45.80636" lon="5.34242">
        <ele>321.705</ele>
        <time>2016-06-19T10:11:55Z</time>
      </trkpt>
      <trkpt lat="45.80628" lon="5.34252">
        <ele>321.039</ele>
        <time>2016-06-19T10:18:15Z</time>
      </trkpt>
      <trkpt lat="45.80621" lon="5.34265">
        <ele>321.1</ele>
        <time>2016-06-19T10:18:24Z</time>
      </trkpt>
      <trkpt lat="45.80614" lon="5.34272">
        <ele>321.087</ele>
        <time>2016-06-19T10:18:28Z</time>
      </trkpt>
      <trkpt lat="45.8058" lon="5.34307">
        <ele>319.887</ele>
        <time>2016-06-19T10:18:42Z</time>
      </trkpt>
      <trkpt lat="45.8057" lon="5.34315">
        <ele>318.249</ele>
        <time>2016-06-19T10:18:46Z</time>
      </trkpt>
      <trkpt lat="45.8053" lon="5.34351">
        <ele>316.135</ele>
        <time>2016-06-19T10:18:58Z</time>
      </trkpt>
      <trkpt lat="45.80512" lon="5.34392">
        <ele>314.959</ele>
        <time>2016-06-19T10:19:10Z</time>
      </trkpt>
      <trkpt lat="45.80483" lon="5.34412">
        <ele>315.097</ele>
        <time>2016-06-19T10:19:21Z</time>
      </trkpt>
      <trkpt lat="45.80478" lon="5.34417">
        <ele>315.607</ele>
        <time>2016-06-19T10:19:23Z</time>
      </trkpt>
      <trkpt lat="45.80471" lon="5.3443">
        <ele>315.34</ele>
        <time>2016-06-19T10:19:29Z</time>
      </trkpt>
      <trkpt lat="45.80453" lon="5.34447">
        <ele>313.242</ele>
        <time>2016-06-19T10:19:40Z</time>
      </trkpt>
      <trkpt lat="45.80448" lon="5.34452">
        <ele>312.124</ele>
        <time>2016-06-19T10:19:43Z</time>
      </trkpt>
      <trkpt lat="45.8043" lon="5.34461">
        <ele>309.143</ele>
        <time>2016-06-19T10:19:52Z</time>
      </trkpt>
      <trkpt lat="45.80415" lon="5.34475">
        <ele>306.134</ele>
        <time>2016-06-19T10:19:58Z</time>
      </trkpt>
      <trkpt lat="45.80412" lon="5.34478">
        <ele>306.134</ele>
        <time>2016-06-19T10:19:59Z</time>
      </trkpt>
      <trkpt lat="45.80398" lon="5.34491">
        <ele>304.58</ele>
        <time>2016-06-19T10:20:05Z</time>
      </trkpt>
      <trkpt lat="45.8039" lon="5.34505">
        <ele>302.493</ele>
        <time>2016-06-19T10:20:11Z</time>
      </trkpt>
      <trkpt lat="45.80385" lon="5.34511">
        <ele>301.544</ele>
        <time>2016-06-19T10:20:14Z</time>
      </trkpt>
      <trkpt lat="45.80383" lon="5.34516">
        <ele>301.354</ele>
        <time>2016-06-19T10:20:16Z</time>
      </trkpt>
      <trkpt lat="45.80365" lon="5.34544">
        <ele>298.447</ele>
        <time>2016-06-19T10:20:27Z</time>
      </trkpt>
      <trkpt lat="45.80352" lon="5.34558">
        <ele>296.619</ele>
        <time>2016-06-19T10:20:33Z</time>
      </trkpt>
      <trkpt lat="45.80341" lon="5.34568">
        <ele>294.14</ele>
        <time>2016-06-19T10:20:42Z</time>
      </trkpt>
      <trkpt lat="45.80336" lon="5.34587">
        <ele>291.524</ele>
        <time>2016-06-19T10:20:52Z</time>
      </trkpt>
      <trkpt lat="45.80324" lon="5.34602">
        <ele>289.564</ele>
        <time>2016-06-19T10:21:02Z</time>
      </trkpt>
      <trkpt lat="45.80313" lon="5.34615">
        <ele>286.99</ele>
        <time>2016-06-19T10:21:09Z</time>
      </trkpt>
      <trkpt lat="45.80311" lon="5.3462">
        <ele>286.523</ele>
        <time>2016-06-19T10:21:11Z</time>
      </trkpt>
      <trkpt lat="45.80316" lon="5.34647">
        <ele>283.978</ele>
        <time>2016-06-19T10:21:20Z</time>
      </trkpt>
      <trkpt lat="45.80318" lon="5.34659">
        <ele>283.257</ele>
        <time>2016-06-19T10:21:23Z</time>
      </trkpt>
      <trkpt lat="45.8031" lon="5.34708">
        <ele>281.18</ele>
        <time>2016-06-19T10:21:36Z</time>
      </trkpt>
      <trkpt lat="45.80294" lon="5.34736">
        <ele>278.947</ele>
        <time>2016-06-19T10:21:44Z</time>
      </trkpt>
      <trkpt lat="45.8029" lon="5.34759">
        <ele>276.022</ele>
        <time>2016-06-19T10:21:50Z</time>
      </trkpt>
      <trkpt lat="45.80298" lon="5.34764">
        <ele>274.281</ele>
        <time>2016-06-19T10:21:54Z</time>
      </trkpt>
      <trkpt lat="45.80329" lon="5.34765">
        <ele>270.84</ele>
        <time>2016-06-19T10:22:01Z</time>
      </trkpt>
      <trkpt lat="45.80345" lon="5.34752">
        <ele>268.314</ele>
        <time>2016-06-19T10:22:04Z</time>
      </trkpt>
      <trkpt lat="45.80351" lon="5.34744">
        <ele>267.057</ele>
        <time>2016-06-19T10:22:06Z</time>
      </trkpt>
      <trkpt lat="45.80357" lon="5.3475">
        <ele>265.548</ele>
        <time>2016-06-19T10:22:11Z</time>
      </trkpt>
      <trkpt lat="45.80357" lon="5.34781">
        <ele>264.755</ele>
        <time>2016-06-19T10:22:16Z</time>
      </trkpt>
      <trkpt lat="45.80365" lon="5.34842">
        <ele>263.783</ele>
        <time>2016-06-19T10:22:29Z</time>
      </trkpt>
      <trkpt lat="45.80375" lon="5.34898">
        <ele>263.764</ele>
        <time>2016-06-19T10:24:29Z</time>
      </trkpt>
      <trkpt lat="45.80386" lon="5.3496">
        <ele>261.598</ele>
        <time>2016-06-19T10:24:38Z</time>
      </trkpt>
      <trkpt lat="45.80402" lon="5.35058">
        <ele>259.005</ele>
        <time>2016-06-19T10:24:52Z</time>
      </trkpt>
      <trkpt lat="45.80416" lon="5.35167">
        <ele>258.614</ele>
        <time>2016-06-19T10:25:10Z</time>
      </trkpt>
      <trkpt lat="45.80429" lon="5.35252">
        <ele>258.318</ele>
        <time>2016-06-19T10:25:23Z</time>
      </trkpt>
      <trkpt lat="45.80435" lon="5.35276">
        <ele>257.069</ele>
        <time>2016-06-19T10:25:27Z</time>
      </trkpt>
      <trkpt lat="45.80459" lon="5.35337">
        <ele>258.651</ele>
        <time>2016-06-19T10:25:39Z</time>
      </trkpt>
      <trkpt lat="45.80464" lon="5.35428">
        <ele>258.68</ele>
        <time>2016-06-19T10:25:56Z</time>
      </trkpt>
      <trkpt lat="45.80457" lon="5.3554">
        <ele>258.773</ele>
        <time>2016-06-19T10:26:17Z</time>
      </trkpt>
      <trkpt lat="45.80453" lon="5.35585">
        <ele>258.525</ele>
        <time>2016-06-19T10:26:30Z</time>
      </trkpt>
      <trkpt lat="45.80451" lon="5.35655">
        <ele>257.425</ele>
        <time>2016-06-19T10:26:41Z</time>
      </trkpt>
      <trkpt lat="45.80449" lon="5.3571">
        <ele>256.265</ele>
        <time>2016-06-19T10:26:49Z</time>
      </trkpt>
      <trkpt lat="45.80458" lon="5.35742">
        <ele>256.326</ele>
        <time>2016-06-19T10:26:54Z</time>
      </trkpt>
      <trkpt lat="45.80509" lon="5.3586">
        <ele>256.141</ele>
        <time>2016-06-19T10:27:15Z</time>
      </trkpt>
      <trkpt lat="45.80564" lon="5.35985">
        <ele>255.304</ele>
        <time>2016-06-19T10:27:38Z</time>
      </trkpt>
      <trkpt lat="45.80607" lon="5.36089">
        <ele>254.447</ele>
        <time>2016-06-19T10:27:59Z</time>
      </trkpt>
      <trkpt lat="45.80608" lon="5.36136">
        <ele>253.871</ele>
        <time>2016-06-19T10:28:06Z</time>
      </trkpt>
      <trkpt lat="45.80574" lon="5.3623">
        <ele>253.99</ele>
        <time>2016-06-19T10:28:23Z</time>
      </trkpt>
      <trkpt lat="45.80541" lon="5.36327">
        <ele>253.681</ele>
        <time>2016-06-19T10:28:42Z</time>
      </trkpt>
      <trkpt lat="45.80507" lon="5.36427">
        <ele>253.61</ele>
        <time>2016-06-19T10:29:02Z</time>
      </trkpt>
      <trkpt lat="45.80476" lon="5.36517">
        <ele>253.317</ele>
        <time>2016-06-19T10:29:22Z</time>
      </trkpt>
      <trkpt lat="45.80475" lon="5.36533">
        <ele>252.97</ele>
        <time>2016-06-19T10:29:26Z</time>
      </trkpt>
      <trkpt lat="45.80471" lon="5.36552">
        <ele>252.722</ele>
        <time>2016-06-19T10:29:32Z</time>
      </trkpt>
      <trkpt lat="45.80451" lon="5.3656">
        <ele>252.46</ele>
        <time>2016-06-19T10:29:38Z</time>
      </trkpt>
      <trkpt lat="45.80399" lon="5.36615">
        <ele>251.982</ele>
        <time>2016-06-19T10:29:54Z</time>
      </trkpt>
      <trkpt lat="45.80376" lon="5.36626">
        <ele>252.17</ele>
        <time>2016-06-19T10:30:00Z</time>
      </trkpt>
      <trkpt lat="45.80306" lon="5.36607">
        <ele>252.881</ele>
        <time>2016-06-19T10:30:18Z</time>
      </trkpt>
      <trkpt lat="45.80231" lon="5.36584">
        <ele>254.215</ele>
        <time>2016-06-19T10:30:39Z</time>
      </trkpt>
      <trkpt lat="45.80154" lon="5.3656">
        <ele>254.73</ele>
        <time>2016-06-19T10:31:00Z</time>
      </trkpt>
      <trkpt lat="45.8006" lon="5.36529">
        <ele>253.879</ele>
        <time>2016-06-19T10:31:22Z</time>
      </trkpt>
      <trkpt lat="45.79979" lon="5.36503">
        <ele>254.907</ele>
        <time>2016-06-19T10:31:38Z</time>
      </trkpt>
      <trkpt lat="45.79896" lon="5.3648">
        <ele>256.017</ele>
        <time>2016-06-19T10:31:56Z</time>
      </trkpt>
      <trkpt lat="45.79831" lon="5.36469">
        <ele>258.036</ele>
        <time>2016-06-19T10:32:14Z</time>
      </trkpt>
      <trkpt lat="45.79817" lon="5.36467">
        <ele>258.12</ele>
        <time>2016-06-19T10:32:20Z</time>
      </trkpt>
      <trkpt lat="45.79812" lon="5.3648">
        <ele>258.688</ele>
        <time>2016-06-19T10:32:24Z</time>
      </trkpt>
      <trkpt lat="45.7983" lon="5.36507">
        <ele>259.867</ele>
        <time>2016-06-19T10:32:39Z</time>
      </trkpt>
      <trkpt lat="45.79866" lon="5.36547">
        <ele>263.178</ele>
        <time>2016-06-19T10:32:55Z</time>
      </trkpt>
      <trkpt lat="45.79896" lon="5.36588">
        <ele>264.649</ele>
        <time>2016-06-19T10:33:11Z</time>
      </trkpt>
      <trkpt lat="45.79926" lon="5.3664">
        <ele>266.087</ele>
        <time>2016-06-19T10:33:32Z</time>
      </trkpt>
      <trkpt lat="45.79955" lon="5.36678">
        <ele>268.785</ele>
        <time>2016-06-19T10:33:52Z</time>
      </trkpt>
      <trkpt lat="45.79995" lon="5.3672">
        <ele>269.871</ele>
        <time>2016-06-19T10:34:09Z</time>
      </trkpt>
      <trkpt lat="45.8001" lon="5.36733">
        <ele>268.647</ele>
        <time>2016-06-19T10:34:20Z</time>
      </trkpt>
      <trkpt lat="45.80033" lon="5.36756">
        <ele>268.724</ele>
        <time>2016-06-19T10:36:39Z</time>
      </trkpt>
      <trkpt lat="45.80056" lon="5.36803">
        <ele>270.04</ele>
        <time>2016-06-19T10:36:51Z</time>
      </trkpt>
      <trkpt lat="45.80057" lon="5.36808">
        <ele>270.278</ele>
        <time>2016-06-19T10:37:00Z</time>
      </trkpt>
      <trkpt lat="45.80063" lon="5.36851">
        <ele>268.721</ele>
        <time>2016-06-19T10:37:12Z</time>
      </trkpt>
      <trkpt lat="45.80075" lon="5.36875">
        <ele>267.646</ele>
        <time>2016-06-19T10:37:45Z</time>
      </trkpt>
      <trkpt lat="45.80103" lon="5.36918">
        <ele>267.968</ele>
        <time>2016-06-19T10:37:58Z</time>
      </trkpt>
      <trkpt lat="45.80118" lon="5.36968">
        <ele>267.791</ele>
        <time>2016-06-19T10:38:11Z</time>
      </trkpt>
      <trkpt lat="45.80121" lon="5.3699">
        <ele>266.383</ele>
        <time>2016-06-19T10:38:21Z</time>
      </trkpt>
      <trkpt lat="45.8013" lon="5.37022">
        <ele>265.587</ele>
        <time>2016-06-19T10:38:40Z</time>
      </trkpt>
      <trkpt lat="45.80138" lon="5.37035">
        <ele>266.097</ele>
        <time>2016-06-19T10:38:44Z</time>
      </trkpt>
      <trkpt lat="45.8018" lon="5.37048">
        <ele>267.812</ele>
        <time>2016-06-19T10:38:57Z</time>
      </trkpt>
      <trkpt lat="45.8023" lon="5.37065">
        <ele>268.608</ele>
        <time>2016-06-19T10:39:11Z</time>
      </trkpt>
      <trkpt lat="45.80253" lon="5.37082">
        <ele>272.28</ele>
        <time>2016-06-19T10:39:22Z</time>
      </trkpt>
      <trkpt lat="45.80274" lon="5.37112">
        <ele>274.009</ele>
        <time>2016-06-19T10:39:42Z</time>
      </trkpt>
      <trkpt lat="45.80307" lon="5.37129">
        <ele>272.455</ele>
        <time>2016-06-19T10:39:56Z</time>
      </trkpt>
      <trkpt lat="45.80325" lon="5.37147">
        <ele>272.576</ele>
        <time>2016-06-19T10:40:06Z</time>
      </trkpt>
      <trkpt lat="45.80324" lon="5.37163">
        <ele>273.131</ele>
        <time>2016-06-19T10:40:11Z</time>
      </trkpt>
      <trkpt lat="45.80309" lon="5.37204">
        <ele>274.265</ele>
        <time>2016-06-19T10:40:29Z</time>
      </trkpt>
      <trkpt lat="45.8029" lon="5.37249">
        <ele>275.301</ele>
        <time>2016-06-19T10:40:47Z</time>
      </trkpt>
      <trkpt lat="45.80271" lon="5.37304">
        <ele>274.725</ele>
        <time>2016-06-19T10:41:00Z</time>
      </trkpt>
      <trkpt lat="45.80248" lon="5.37354">
        <ele>275.533</ele>
        <time>2016-06-19T10:41:17Z</time>
      </trkpt>
      <trkpt lat="45.80223" lon="5.37398">
        <ele>274.947</ele>
        <time>2016-06-19T10:41:31Z</time>
      </trkpt>
      <trkpt lat="45.80216" lon="5.3743">
        <ele>276.175</ele>
        <time>2016-06-19T10:41:40Z</time>
      </trkpt>
      <trkpt lat="45.80211" lon="5.3746">
        <ele>278.355</ele>
        <time>2016-06-19T10:41:55Z</time>
      </trkpt>
      <trkpt lat="45.80204" lon="5.37501">
        <ele>279.523</ele>
        <time>2016-06-19T10:42:13Z</time>
      </trkpt>
      <trkpt lat="45.80189" lon="5.37554">
        <ele>281.885</ele>
        <time>2016-06-19T10:42:29Z</time>
      </trkpt>
      <trkpt lat="45.80173" lon="5.37594">
        <ele>285.075</ele>
        <time>2016-06-19T10:42:44Z</time>
      </trkpt>
      <trkpt lat="45.80139" lon="5.37652">
        <ele>284.8</ele>
        <time>2016-06-19T10:43:07Z</time>
      </trkpt>
      <trkpt lat="45.80125" lon="5.37676">
        <ele>284.232</ele>
        <time>2016-06-19T10:43:17Z</time>
      </trkpt>
      <trkpt lat="45.80107" lon="5.37718">
        <ele>284.366</ele>
        <time>2016-06-19T10:43:28Z</time>
      </trkpt>
      <trkpt lat="45.80092" lon="5.37767">
        <ele>284.987</ele>
        <time>2016-06-19T10:43:38Z</time>
      </trkpt>
      <trkpt lat="45.80091" lon="5.37775">
        <ele>284.797</ele>
        <time>2016-06-19T10:43:40Z</time>
      </trkpt>
      <trkpt lat="45.80091" lon="5.37793">
        <ele>284.728</ele>
        <time>2016-06-19T10:43:47Z</time>
      </trkpt>
      <trkpt lat="45.80094" lon="5.37806">
        <ele>285.167</ele>
        <time>2016-06-19T10:43:54Z</time>
      </trkpt>
      <trkpt lat="45.80097" lon="5.37843">
        <ele>286.61</ele>
        <time>2016-06-19T10:45:04Z</time>
      </trkpt>
      <trkpt lat="45.80097" lon="5.37851">
        <ele>287.566</ele>
        <time>2016-06-19T10:45:09Z</time>
      </trkpt>
      <trkpt lat="45.80097" lon="5.37855">
        <ele>287.873</ele>
        <time>2016-06-19T10:45:16Z</time>
      </trkpt>
      <trkpt lat="45.80096" lon="5.37867">
        <ele>286.863</ele>
        <time>2016-06-19T10:45:26Z</time>
      </trkpt>
      <trkpt lat="45.80094" lon="5.37874">
        <ele>287.117</ele>
        <time>2016-06-19T10:45:31Z</time>
      </trkpt>
      <trkpt lat="45.80091" lon="5.37883">
        <ele>287.889</ele>
        <time>2016-06-19T10:45:45Z</time>
      </trkpt>
      <trkpt lat="45.80077" lon="5.37904">
        <ele>287.408</ele>
        <time>2016-06-19T10:45:53Z</time>
      </trkpt>
      <trkpt lat="45.80074" lon="5.37908">
        <ele>287.712</ele>
        <time>2016-06-19T10:45:55Z</time>
      </trkpt>
      <trkpt lat="45.80069" lon="5.37913">
        <ele>287.529</ele>
        <time>2016-06-19T10:45:59Z</time>
      </trkpt>
      <trkpt lat="45.80065" lon="5.3792">
        <ele>287.743</ele>
        <time>2016-06-19T10:46:01Z</time>
      </trkpt>
      <trkpt lat="45.80056" lon="5.37942">
        <ele>288.068</ele>
        <time>2016-06-19T10:46:10Z</time>
      </trkpt>
      <trkpt lat="45.80055" lon="5.37944">
        <ele>288.211</ele>
        <time>2016-06-19T10:46:13Z</time>
      </trkpt>
      <trkpt lat="45.80053" lon="5.37952">
        <ele>287.907</ele>
        <time>2016-06-19T10:46:16Z</time>
      </trkpt>
      <trkpt lat="45.80048" lon="5.37969">
        <ele>287.738</ele>
        <time>2016-06-19T10:46:23Z</time>
      </trkpt>
      <trkpt lat="45.80046" lon="5.37981">
        <ele>288.06</ele>
        <time>2016-06-19T10:46:28Z</time>
      </trkpt>
      <trkpt lat="45.80041" lon="5.38009">
        <ele>288.451</ele>
        <time>2016-06-19T10:46:36Z</time>
      </trkpt>
      <trkpt lat="45.80041" lon="5.38038">
        <ele>288.766</ele>
        <time>2016-06-19T10:46:49Z</time>
      </trkpt>
      <trkpt lat="45.80043" lon="5.38071">
        <ele>289.453</ele>
        <time>2016-06-19T10:47:06Z</time>
      </trkpt>
      <trkpt lat="45.80046" lon="5.381">
        <ele>289.722</ele>
        <time>2016-06-19T10:47:19Z</time>
      </trkpt>
      <trkpt lat="45.80046" lon="5.38119">
        <ele>289.91</ele>
        <time>2016-06-19T10:47:30Z</time>
      </trkpt>
      <trkpt lat="45.80048" lon="5.38143">
        <ele>289.902</ele>
        <time>2016-06-19T10:47:47Z</time>
      </trkpt>
      <trkpt lat="45.80058" lon="5.38172">
        <ele>290.446</ele>
        <time>2016-06-19T10:47:58Z</time>
      </trkpt>
      <trkpt lat="45.80061" lon="5.38183">
        <ele>290.56</ele>
        <time>2016-06-19T10:48:03Z</time>
      </trkpt>
      <trkpt lat="45.80057" lon="5.3821">
        <ele>290.293</ele>
        <time>2016-06-19T10:48:15Z</time>
      </trkpt>
      <trkpt lat="45.80048" lon="5.38225">
        <ele>291.297</ele>
        <time>2016-06-19T10:48:27Z</time>
      </trkpt>
      <trkpt lat="45.80049" lon="5.38268">
        <ele>291.635</ele>
        <time>2016-06-19T10:48:38Z</time>
      </trkpt>
      <trkpt lat="45.80051" lon="5.38272">
        <ele>292.132</ele>
        <time>2016-06-19T10:54:16Z</time>
      </trkpt>
      <trkpt lat="45.80044" lon="5.38275">
        <ele>291.908</ele>
        <time>2016-06-19T10:54:21Z</time>
      </trkpt>
      <trkpt lat="45.80014" lon="5.38304">
        <ele>292.423</ele>
        <time>2016-06-19T10:54:37Z</time>
      </trkpt>
      <trkpt lat="45.79971" lon="5.38362">
        <ele>291.902</ele>
        <time>2016-06-19T10:54:55Z</time>
      </trkpt>
      <trkpt lat="45.79931" lon="5.38421">
        <ele>291.717</ele>
        <time>2016-06-19T10:55:13Z</time>
      </trkpt>
      <trkpt lat="45.79896" lon="5.38476">
        <ele>293.028</ele>
        <time>2016-06-19T10:55:30Z</time>
      </trkpt>
      <trkpt lat="45.7987" lon="5.38517">
        <ele>294.767</ele>
        <time>2016-06-19T10:55:45Z</time>
      </trkpt>
      <trkpt lat="45.79849" lon="5.38563">
        <ele>295.771</ele>
        <time>2016-06-19T10:56:02Z</time>
      </trkpt>
      <trkpt lat="45.79836" lon="5.38615">
        <ele>294.545</ele>
        <time>2016-06-19T10:56:15Z</time>
      </trkpt>
      <trkpt lat="45.79836" lon="5.38624">
        <ele>294.352</ele>
        <time>2016-06-19T10:56:17Z</time>
      </trkpt>
      <trkpt lat="45.79836" lon="5.38677">
        <ele>293.398</ele>
        <time>2016-06-19T10:56:28Z</time>
      </trkpt>
      <trkpt lat="45.79835" lon="5.38727">
        <ele>294.777</ele>
        <time>2016-06-19T10:56:39Z</time>
      </trkpt>
      <trkpt lat="45.79806" lon="5.38781">
        <ele>297.39</ele>
        <time>2016-06-19T10:56:53Z</time>
      </trkpt>
      <trkpt lat="45.79788" lon="5.38836">
        <ele>298.986</ele>
        <time>2016-06-19T10:57:06Z</time>
      </trkpt>
      <trkpt lat="45.79764" lon="5.38901">
        <ele>302.279</ele>
        <time>2016-06-19T10:57:21Z</time>
      </trkpt>
      <trkpt lat="45.79749" lon="5.38974">
        <ele>303.404</ele>
        <time>2016-06-19T10:57:37Z</time>
      </trkpt>
      <trkpt lat="45.7974" lon="5.3902">
        <ele>304.459</ele>
        <time>2016-06-19T10:57:52Z</time>
      </trkpt>
      <trkpt lat="45.7974" lon="5.3903">
        <ele>304.805</ele>
        <time>2016-06-19T10:59:26Z</time>
      </trkpt>
      <trkpt lat="45.79724" lon="5.39071">
        <ele>304.276</ele>
        <time>2016-06-19T10:59:35Z</time>
      </trkpt>
      <trkpt lat="45.79697" lon="5.39158">
        <ele>302.506</ele>
        <time>2016-06-19T10:59:52Z</time>
      </trkpt>
      <trkpt lat="45.79693" lon="5.39176">
        <ele>302.524</ele>
        <time>2016-06-19T10:59:55Z</time>
      </trkpt>
      <trkpt lat="45.79673" lon="5.3922">
        <ele>301.882</ele>
        <time>2016-06-19T11:00:03Z</time>
      </trkpt>
      <trkpt lat="45.79611" lon="5.39311">
        <ele>300.128</ele>
        <time>2016-06-19T11:00:21Z</time>
      </trkpt>
      <trkpt lat="45.79533" lon="5.39392">
        <ele>297.509</ele>
        <time>2016-06-19T11:00:37Z</time>
      </trkpt>
      <trkpt lat="45.79501" lon="5.39406">
        <ele>296.069</ele>
        <time>2016-06-19T11:00:43Z</time>
      </trkpt>
      <trkpt lat="45.79479" lon="5.39425">
        <ele>296.437</ele>
        <time>2016-06-19T11:00:48Z</time>
      </trkpt>
      <trkpt lat="45.79439" lon="5.39468">
        <ele>296.138</ele>
        <time>2016-06-19T11:00:59Z</time>
      </trkpt>
      <trkpt lat="45.79425" lon="5.39485">
        <ele>296.474</ele>
        <time>2016-06-19T11:01:03Z</time>
      </trkpt>
      <trkpt lat="45.79416" lon="5.39505">
        <ele>296.439</ele>
        <time>2016-06-19T11:01:07Z</time>
      </trkpt>
      <trkpt lat="45.79411" lon="5.39532">
        <ele>296.674</ele>
        <time>2016-06-19T11:01:12Z</time>
      </trkpt>
      <trkpt lat="45.79411" lon="5.39545">
        <ele>296.941</ele>
        <time>2016-06-19T11:01:14Z</time>
      </trkpt>
      <trkpt lat="45.794" lon="5.39579">
        <ele>296.899</ele>
        <time>2016-06-19T11:01:20Z</time>
      </trkpt>
      <trkpt lat="45.7936" lon="5.39619">
        <ele>299.216</ele>
        <time>2016-06-19T11:01:34Z</time>
      </trkpt>
      <trkpt lat="45.79353" lon="5.39628">
        <ele>299.14</ele>
        <time>2016-06-19T11:01:44Z</time>
      </trkpt>
      <trkpt lat="45.79335" lon="5.39651">
        <ele>301.153</ele>
        <time>2016-06-19T11:02:31Z</time>
      </trkpt>
      <trkpt lat="45.79317" lon="5.39675">
        <ele>301.996</ele>
        <time>2016-06-19T11:02:42Z</time>
      </trkpt>
      <trkpt lat="45.79292" lon="5.3971">
        <ele>304.942</ele>
        <time>2016-06-19T11:02:59Z</time>
      </trkpt>
      <trkpt lat="45.79257" lon="5.39734">
        <ele>305.484</ele>
        <time>2016-06-19T11:03:16Z</time>
      </trkpt>
      <trkpt lat="45.79218" lon="5.39746">
        <ele>304.91</ele>
        <time>2016-06-19T11:03:29Z</time>
      </trkpt>
      <trkpt lat="45.79181" lon="5.39767">
        <ele>302.881</ele>
        <time>2016-06-19T11:03:36Z</time>
      </trkpt>
      <trkpt lat="45.79145" lon="5.39802">
        <ele>302.419</ele>
        <time>2016-06-19T11:03:44Z</time>
      </trkpt>
      <trkpt lat="45.79111" lon="5.39824">
        <ele>303.256</ele>
        <time>2016-06-19T11:03:54Z</time>
      </trkpt>
      <trkpt lat="45.79049" lon="5.39842">
        <ele>304.535</ele>
        <time>2016-06-19T11:04:14Z</time>
      </trkpt>
      <trkpt lat="45.7902" lon="5.39868">
        <ele>304.741</ele>
        <time>2016-06-19T11:04:29Z</time>
      </trkpt>
      <trkpt lat="45.79004" lon="5.39906">
        <ele>304.504</ele>
        <time>2016-06-19T11:04:38Z</time>
      </trkpt>
      <trkpt lat="45.78973" lon="5.3998">
        <ele>302.036</ele>
        <time>2016-06-19T11:04:52Z</time>
      </trkpt>
      <trkpt lat="45.78954" lon="5.40039">
        <ele>299.412</ele>
        <time>2016-06-19T11:05:05Z</time>
      </trkpt>
      <trkpt lat="45.78953" lon="5.40044">
        <ele>299.269</ele>
        <time>2016-06-19T11:05:22Z</time>
      </trkpt>
      <trkpt lat="45.78952" lon="5.4005">
        <ele>298.764</ele>
        <time>2016-06-19T11:06:36Z</time>
      </trkpt>
      <trkpt lat="45.78911" lon="5.40053">
        <ele>299.108</ele>
        <time>2016-06-19T11:06:46Z</time>
      </trkpt>
      <trkpt lat="45.78817" lon="5.4005">
        <ele>297.036</ele>
        <time>2016-06-19T11:07:04Z</time>
      </trkpt>
      <trkpt lat="45.78753" lon="5.40051">
        <ele>296.355</ele>
        <time>2016-06-19T11:07:14Z</time>
      </trkpt>
      <trkpt lat="45.78726" lon="5.40064">
        <ele>295.351</ele>
        <time>2016-06-19T11:07:19Z</time>
      </trkpt>
      <trkpt lat="45.78704" lon="5.40076">
        <ele>295.763</ele>
        <time>2016-06-19T11:07:23Z</time>
      </trkpt>
      <trkpt lat="45.78618" lon="5.40125">
        <ele>296.574</ele>
        <time>2016-06-19T11:07:40Z</time>
      </trkpt>
      <trkpt lat="45.78558" lon="5.4016">
        <ele>298.305</ele>
        <time>2016-06-19T11:07:58Z</time>
      </trkpt>
      <trkpt lat="45.78512" lon="5.40188">
        <ele>299.961</ele>
        <time>2016-06-19T11:08:15Z</time>
      </trkpt>
      <trkpt lat="45.78465" lon="5.40235">
        <ele>299.79</ele>
        <time>2016-06-19T11:08:31Z</time>
      </trkpt>
      <trkpt lat="45.7844" lon="5.40253">
        <ele>299.277</ele>
        <time>2016-06-19T11:08:40Z</time>
      </trkpt>
      <trkpt lat="45.7843" lon="5.40257">
        <ele>300.442</ele>
        <time>2016-06-19T11:08:44Z</time>
      </trkpt>
      <trkpt lat="45.7839" lon="5.40282">
        <ele>300.841</ele>
        <time>2016-06-19T11:08:57Z</time>
      </trkpt>
      <trkpt lat="45.78343" lon="5.40357">
        <ele>298.994</ele>
        <time>2016-06-19T11:09:11Z</time>
      </trkpt>
      <trkpt lat="45.78286" lon="5.40455">
        <ele>296.997</ele>
        <time>2016-06-19T11:09:24Z</time>
      </trkpt>
      <trkpt lat="45.78256" lon="5.40467">
        <ele>296.698</ele>
        <time>2016-06-19T11:09:30Z</time>
      </trkpt>
      <trkpt lat="45.78241" lon="5.40465">
        <ele>296.585</ele>
        <time>2016-06-19T11:09:33Z</time>
      </trkpt>
      <trkpt lat="45.78214" lon="5.40498">
        <ele>296.138</ele>
        <time>2016-06-19T11:09:40Z</time>
      </trkpt>
      <trkpt lat="45.78206" lon="5.40532">
        <ele>296.315</ele>
        <time>2016-06-19T11:09:45Z</time>
      </trkpt>
      <trkpt lat="45.78179" lon="5.40579">
        <ele>295.467</ele>
        <time>2016-06-19T11:09:55Z</time>
      </trkpt>
      <trkpt lat="45.78145" lon="5.40633">
        <ele>294.87</ele>
        <time>2016-06-19T11:10:07Z</time>
      </trkpt>
      <trkpt lat="45.78143" lon="5.4064">
        <ele>294.479</ele>
        <time>2016-06-19T11:10:08Z</time>
      </trkpt>
      <trkpt lat="45.78136" lon="5.40662">
        <ele>293.874</ele>
        <time>2016-06-19T11:10:11Z</time>
      </trkpt>
      <trkpt lat="45.78126" lon="5.40751">
        <ele>292.402</ele>
        <time>2016-06-19T11:10:22Z</time>
      </trkpt>
      <trkpt lat="45.78118" lon="5.4078">
        <ele>290.465</ele>
        <time>2016-06-19T11:10:26Z</time>
      </trkpt>
      <trkpt lat="45.7808" lon="5.40861">
        <ele>287.117</ele>
        <time>2016-06-19T11:10:38Z</time>
      </trkpt>
      <trkpt lat="45.78026" lon="5.40931">
        <ele>283.907</ele>
        <time>2016-06-19T11:10:51Z</time>
      </trkpt>
      <trkpt lat="45.77976" lon="5.40965">
        <ele>279.589</ele>
        <time>2016-06-19T11:11:01Z</time>
      </trkpt>
      <trkpt lat="45.77971" lon="5.40968">
        <ele>279.589</ele>
        <time>2016-06-19T11:11:02Z</time>
      </trkpt>
      <trkpt lat="45.77956" lon="5.4098">
        <ele>279.09</ele>
        <time>2016-06-19T11:11:05Z</time>
      </trkpt>
      <trkpt lat="45.7791" lon="5.41034">
        <ele>277.702</ele>
        <time>2016-06-19T11:11:16Z</time>
      </trkpt>
      <trkpt lat="45.77876" lon="5.41071">
        <ele>278.26</ele>
        <time>2016-06-19T11:11:28Z</time>
      </trkpt>
      <trkpt lat="45.77873" lon="5.41076">
        <ele>277.948</ele>
        <time>2016-06-19T11:11:29Z</time>
      </trkpt>
      <trkpt lat="45.77827" lon="5.41143">
        <ele>277.203</ele>
        <time>2016-06-19T11:11:46Z</time>
      </trkpt>
      <trkpt lat="45.77802" lon="5.41171">
        <ele>276.754</ele>
        <time>2016-06-19T11:11:55Z</time>
      </trkpt>
      <trkpt lat="45.77754" lon="5.41229">
        <ele>276.122</ele>
        <time>2016-06-19T11:12:07Z</time>
      </trkpt>
      <trkpt lat="45.77745" lon="5.41244">
        <ele>274.788</ele>
        <time>2016-06-19T11:12:10Z</time>
      </trkpt>
      <trkpt lat="45.77705" lon="5.413">
        <ele>270.946</ele>
        <time>2016-06-19T11:12:19Z</time>
      </trkpt>
      <trkpt lat="45.77694" lon="5.41313">
        <ele>270.132</ele>
        <time>2016-06-19T11:12:21Z</time>
      </trkpt>
      <trkpt lat="45.77688" lon="5.41319">
        <ele>269.794</ele>
        <time>2016-06-19T11:12:22Z</time>
      </trkpt>
      <trkpt lat="45.77676" lon="5.41356">
        <ele>267.316</ele>
        <time>2016-06-19T11:12:26Z</time>
      </trkpt>
      <trkpt lat="45.77667" lon="5.41422">
        <ele>266.581</ele>
        <time>2016-06-19T11:12:32Z</time>
      </trkpt>
      <trkpt lat="45.77689" lon="5.41466">
        <ele>265.868</ele>
        <time>2016-06-19T11:12:39Z</time>
      </trkpt>
      <trkpt lat="45.77699" lon="5.41477">
        <ele>265.58</ele>
        <time>2016-06-19T11:12:41Z</time>
      </trkpt>
      <trkpt lat="45.77724" lon="5.41502">
        <ele>264.388</ele>
        <time>2016-06-19T11:12:46Z</time>
      </trkpt>
      <trkpt lat="45.77742" lon="5.4154">
        <ele>263.133</ele>
        <time>2016-06-19T11:12:51Z</time>
      </trkpt>
      <trkpt lat="45.77755" lon="5.41569">
        <ele>262.581</ele>
        <time>2016-06-19T11:12:55Z</time>
      </trkpt>
      <trkpt lat="45.77776" lon="5.41621">
        <ele>262.652</ele>
        <time>2016-06-19T11:13:02Z</time>
      </trkpt>
      <trkpt lat="45.77813" lon="5.41712">
        <ele>261.904</ele>
        <time>2016-06-19T11:13:15Z</time>
      </trkpt>
      <trkpt lat="45.77821" lon="5.41726">
        <ele>260.773</ele>
        <time>2016-06-19T11:13:23Z</time>
      </trkpt>
      <trkpt lat="45.77818" lon="5.41755">
        <ele>260.245</ele>
        <time>2016-06-19T11:14:13Z</time>
      </trkpt>
      <trkpt lat="45.77815" lon="5.41864">
        <ele>258.961</ele>
        <time>2016-06-19T11:14:29Z</time>
      </trkpt>
      <trkpt lat="45.77814" lon="5.41888">
        <ele>258.318</ele>
        <time>2016-06-19T11:14:32Z</time>
      </trkpt>
      <trkpt lat="45.77818" lon="5.41953">
        <ele>257.711</ele>
        <time>2016-06-19T11:14:40Z</time>
      </trkpt>
      <trkpt lat="45.77814" lon="5.41985">
        <ele>257.375</ele>
        <time>2016-06-19T11:14:44Z</time>
      </trkpt>
      <trkpt lat="45.77806" lon="5.42018">
        <ele>256.514</ele>
        <time>2016-06-19T11:14:48Z</time>
      </trkpt>
      <trkpt lat="45.778" lon="5.42044">
        <ele>255.724</ele>
        <time>2016-06-19T11:14:51Z</time>
      </trkpt>
      <trkpt lat="45.77789" lon="5.42068">
        <ele>255.272</ele>
        <time>2016-06-19T11:14:54Z</time>
      </trkpt>
      <trkpt lat="45.7778" lon="5.42081">
        <ele>254.477</ele>
        <time>2016-06-19T11:14:56Z</time>
      </trkpt>
      <trkpt lat="45.77725" lon="5.4216">
        <ele>251.293</ele>
        <time>2016-06-19T11:15:08Z</time>
      </trkpt>
      <trkpt lat="45.77715" lon="5.42182">
        <ele>250.328</ele>
        <time>2016-06-19T11:15:13Z</time>
      </trkpt>
      <trkpt lat="45.77693" lon="5.42209">
        <ele>249.393</ele>
        <time>2016-06-19T11:15:16Z</time>
      </trkpt>
      <trkpt lat="45.77686" lon="5.42239">
        <ele>247.313</ele>
        <time>2016-06-19T11:15:20Z</time>
      </trkpt>
      <trkpt lat="45.77672" lon="5.42286">
        <ele>245.213</ele>
        <time>2016-06-19T11:15:26Z</time>
      </trkpt>
      <trkpt lat="45.7767" lon="5.42295">
        <ele>244.988</ele>
        <time>2016-06-19T11:15:27Z</time>
      </trkpt>
      <trkpt lat="45.7766" lon="5.42325">
        <ele>242.248</ele>
        <time>2016-06-19T11:15:31Z</time>
      </trkpt>
      <trkpt lat="45.7764" lon="5.42379">
        <ele>238.929</ele>
        <time>2016-06-19T11:15:38Z</time>
      </trkpt>
      <trkpt lat="45.77615" lon="5.42485">
        <ele>235.476</ele>
        <time>2016-06-19T11:15:48Z</time>
      </trkpt>
      <trkpt lat="45.7759" lon="5.42545">
        <ele>234.429</ele>
        <time>2016-06-19T11:15:57Z</time>
      </trkpt>
      <trkpt lat="45.77564" lon="5.42616">
        <ele>233.901</ele>
        <time>2016-06-19T11:16:08Z</time>
      </trkpt>
      <trkpt lat="45.77559" lon="5.42629">
        <ele>233.75</ele>
        <time>2016-06-19T11:16:10Z</time>
      </trkpt>
      <trkpt lat="45.77554" lon="5.42649">
        <ele>233.808</ele>
        <time>2016-06-19T11:16:13Z</time>
      </trkpt>
      <trkpt lat="45.77561" lon="5.42679">
        <ele>234.012</ele>
        <time>2016-06-19T11:16:21Z</time>
      </trkpt>
      <trkpt lat="45.77611" lon="5.42728">
        <ele>234.432</ele>
        <time>2016-06-19T11:16:38Z</time>
      </trkpt>
      <trkpt lat="45.77625" lon="5.4275">
        <ele>234.096</ele>
        <time>2016-06-19T11:16:45Z</time>
      </trkpt>
      <trkpt lat="45.77632" lon="5.42773">
        <ele>234.041</ele>
        <time>2016-06-19T11:18:25Z</time>
      </trkpt>
      <trkpt lat="45.77644" lon="5.42844">
        <ele>232.471</ele>
        <time>2016-06-19T11:18:36Z</time>
      </trkpt>
      <trkpt lat="45.77652" lon="5.42887">
        <ele>232.397</ele>
        <time>2016-06-19T11:18:42Z</time>
      </trkpt>
      <trkpt lat="45.77664" lon="5.42924">
        <ele>232.056</ele>
        <time>2016-06-19T11:18:48Z</time>
      </trkpt>
      <trkpt lat="45.77692" lon="5.42992">
        <ele>231.723</ele>
        <time>2016-06-19T11:18:59Z</time>
      </trkpt>
      <trkpt lat="45.77731" lon="5.43116">
        <ele>231.536</ele>
        <time>2016-06-19T11:19:20Z</time>
      </trkpt>
      <trkpt lat="45.77757" lon="5.43239">
        <ele>230.138</ele>
        <time>2016-06-19T11:19:40Z</time>
      </trkpt>
      <trkpt lat="45.77775" lon="5.43319">
        <ele>229.327</ele>
        <time>2016-06-19T11:19:55Z</time>
      </trkpt>
      <trkpt lat="45.77785" lon="5.43349">
        <ele>229.005</ele>
        <time>2016-06-19T11:20:02Z</time>
      </trkpt>
      <trkpt lat="45.77797" lon="5.43385">
        <ele>229.734</ele>
        <time>2016-06-19T11:20:08Z</time>
      </trkpt>
      <trkpt lat="45.7781" lon="5.43428">
        <ele>229.546</ele>
        <time>2016-06-19T11:20:15Z</time>
      </trkpt>
      <trkpt lat="45.77847" lon="5.43537">
        <ele>229.467</ele>
        <time>2016-06-19T11:20:34Z</time>
      </trkpt>
      <trkpt lat="45.77861" lon="5.43576">
        <ele>229.454</ele>
        <time>2016-06-19T11:20:41Z</time>
      </trkpt>
      <trkpt lat="45.77901" lon="5.43684">
        <ele>228.78</ele>
        <time>2016-06-19T11:20:59Z</time>
      </trkpt>
      <trkpt lat="45.77909" lon="5.43706">
        <ele>228.592</ele>
        <time>2016-06-19T11:21:03Z</time>
      </trkpt>
      <trkpt lat="45.77948" lon="5.43808">
        <ele>228.849</ele>
        <time>2016-06-19T11:21:21Z</time>
      </trkpt>
      <trkpt lat="45.77989" lon="5.43915">
        <ele>228.606</ele>
        <time>2016-06-19T11:21:40Z</time>
      </trkpt>
      <trkpt lat="45.78018" lon="5.44007">
        <ele>227.498</ele>
        <time>2016-06-19T11:21:58Z</time>
      </trkpt>
      <trkpt lat="45.7802" lon="5.44013">
        <ele>227.76</ele>
        <time>2016-06-19T11:22:00Z</time>
      </trkpt>
      <trkpt lat="45.78011" lon="5.44014">
        <ele>227.358</ele>
        <time>2016-06-19T11:22:04Z</time>
      </trkpt>
      <trkpt lat="45.78" lon="5.44031">
        <ele>227.414</ele>
        <time>2016-06-19T11:22:09Z</time>
      </trkpt>
      <trkpt lat="45.77961" lon="5.44061">
        <ele>226.893</ele>
        <time>2016-06-19T11:22:22Z</time>
      </trkpt>
      <trkpt lat="45.77938" lon="5.44109">
        <ele>226.822</ele>
        <time>2016-06-19T11:22:37Z</time>
      </trkpt>
      <trkpt lat="45.77941" lon="5.44122">
        <ele>227.07</ele>
        <time>2016-06-19T11:22:47Z</time>
      </trkpt>
      <trkpt lat="45.78012" lon="5.44166">
        <ele>226.856</ele>
        <time>2016-06-19T11:23:04Z</time>
      </trkpt>
      <trkpt lat="45.78055" lon="5.44195">
        <ele>226.854</ele>
        <time>2016-06-19T11:23:18Z</time>
      </trkpt>
      <trkpt lat="45.78063" lon="5.44203">
        <ele>227.438</ele>
        <time>2016-06-19T11:23:29Z</time>
      </trkpt>
      <trkpt lat="45.78112" lon="5.44262">
        <ele>229.158</ele>
        <time>2016-06-19T11:23:43Z</time>
      </trkpt>
      <trkpt lat="45.78169" lon="5.4435">
        <ele>229.552</ele>
        <time>2016-06-19T11:24:00Z</time>
      </trkpt>
      <trkpt lat="45.78209" lon="5.44409">
        <ele>230.365</ele>
        <time>2016-06-19T11:24:14Z</time>
      </trkpt>
      <trkpt lat="45.78246" lon="5.44451">
        <ele>231.755</ele>
        <time>2016-06-19T11:24:28Z</time>
      </trkpt>
      <trkpt lat="45.78279" lon="5.44473">
        <ele>232.215</ele>
        <time>2016-06-19T11:24:36Z</time>
      </trkpt>
      <trkpt lat="45.78371" lon="5.44477">
        <ele>233.592</ele>
        <time>2016-06-19T11:24:55Z</time>
      </trkpt>
      <trkpt lat="45.78431" lon="5.4446">
        <ele>232.839</ele>
        <time>2016-06-19T11:25:07Z</time>
      </trkpt>
      <trkpt lat="45.78525" lon="5.44418">
        <ele>229.631</ele>
        <time>2016-06-19T11:25:24Z</time>
      </trkpt>
      <trkpt lat="45.78588" lon="5.44377">
        <ele>227.583</ele>
        <time>2016-06-19T11:25:36Z</time>
      </trkpt>
      <trkpt lat="45.78654" lon="5.44362">
        <ele>224.544</ele>
        <time>2016-06-19T11:25:48Z</time>
      </trkpt>
      <trkpt lat="45.7866" lon="5.44362">
        <ele>224.544</ele>
        <time>2016-06-19T11:25:49Z</time>
      </trkpt>
      <trkpt lat="45.78687" lon="5.44366">
        <ele>223.268</ele>
        <time>2016-06-19T11:25:54Z</time>
      </trkpt>
      <trkpt lat="45.78707" lon="5.44357">
        <ele>222.972</ele>
        <time>2016-06-19T11:25:59Z</time>
      </trkpt>
      <trkpt lat="45.78723" lon="5.44346">
        <ele>223.057</ele>
        <time>2016-06-19T11:26:05Z</time>
      </trkpt>
    </trkseg>
  </trk>
</gpx>